G4826 / N338NV 7700 Squawk Report (17th of July, 2020)

Aircraft A319 Reg No. N338NV Age 15 years old
Model A319 Jet engines 2 First flight 06-12-04
Registered 27-09-19 Rollout 12-04 Delivered 21-01-05
Construction No. 2378 Line No. N/A Series 111
ADSHEX A3B4C7 Airline name Allegiant Air Owner N/A
Airfield based Las Vegas-McCarran~NV~N First tracked N/A

Flight history for N338NV

Route Flight No Date Playback
Phoenix-Mesa Gateway (AZA) - McCarran Intl (LAS) G473 2020-08-09 01:30:00
The Eastern Iowa Airport (CID) - Phoenix-Mesa Gateway (AZA) G4101 2020-08-09 00:51:00
Phoenix-Mesa Gateway (AZA) - The Eastern Iowa Airport (CID) G4183 2020-08-08 20:49:00
McCarran Intl (LAS) - Phoenix-Mesa Gateway (AZA) G4191 2020-08-08 17:31:00
Stockton Metropolitan (SCK) - McCarran Intl (LAS) G4131 2020-08-08 06:35:00
San Diego Intl (SAN) - Stockton Metropolitan (SCK) G4153 2020-08-08 05:33:00
Stockton Metropolitan (SCK) - San Diego Intl (SAN) G4126 2020-08-08 02:40:00
McCarran Intl (LAS) - Stockton Metropolitan (SCK) G4113 2020-08-08 01:27:00
Sioux Falls (FSD) - McCarran Intl (LAS) G459 2020-08-07 18:57:00
McCarran Intl (LAS) - Sioux Falls (FSD) G458 2020-08-07 16:28:00
Rogue Valley Intl Medford (MFR) - McCarran Intl (LAS) G478 2020-08-07 13:24:00
San Diego Intl (SAN) - Rogue Valley Intl Medford (MFR) G42605 2020-08-07 05:37:00
Rogue Valley Intl Medford (MFR) - San Diego Intl (SAN) G42604 2020-08-07 01:26:00
McCarran Intl (LAS) - Rogue Valley Intl Medford (MFR) G477 2020-08-06 23:36:00
Rapid City Regional Airport (RAP) - McCarran Intl (LAS) G42619 2020-08-06 20:20:00
McCarran Intl (LAS) - Rapid City Regional Airport (RAP) G42618 2020-08-06 16:22:00
Great Falls Intl (GTF) - McCarran Intl (LAS) G468 2020-08-04 08:08:00
McCarran Intl (LAS) - Great Falls Intl (GTF) G467 2020-08-04 03:38:00
Gerald R Ford Intl (GRR) - McCarran Intl (LAS) G42449 2020-08-04 01:49:00
McCarran Intl (LAS) - Gerald R Ford Intl (GRR) G42432 2020-08-03 21:29:00
Time Lat Lon Altitude Heading Speed Vertical Rate
2020-07-17 15:06:33 GMT 39.053791 -84.651497 0 269 4 -32
2020-07-17 15:06:30 GMT 39.053791 -84.651421 0 269 4 -32
2020-07-17 15:06:27 GMT 39.053780 -84.651352 0 269 4 -32
2020-07-17 15:06:24 GMT 39.053780 -84.651283 0 267 5 -32
2020-07-17 15:06:21 GMT 39.053768 -84.651176 0 265 4 -32
2020-07-17 15:06:18 GMT 39.053768 -84.651093 0 264 3 -32
2020-07-17 15:06:15 GMT 39.053791 -84.651062 0 266 2 -32
2020-07-17 15:06:12 GMT 39.053799 -84.651016 0 266 3 -32
2020-07-17 15:06:09 GMT 39.053761 -84.650871 0 277 4 -32
2020-07-17 15:06:06 GMT 39.053761 -84.650871 0 298 7 -32
2020-07-17 15:06:03 GMT 39.053848 -84.650787 0 310 2 -32
2020-07-17 15:06:00 GMT 39.053848 -84.650787 0 320 4 -32
2020-07-17 15:05:57 GMT 39.053848 -84.650711 0 348 5 -32
2020-07-17 15:05:54 GMT 39.053791 -84.650627 0 358 6 -32
2020-07-17 15:05:51 GMT 39.053719 -84.650650 0 358 7 -32
2020-07-17 15:05:48 GMT 39.053612 -84.650612 0 2 9 -32
2020-07-17 15:05:45 GMT 39.053501 -84.650627 0 359 10 -32
2020-07-17 15:05:42 GMT 39.053211 -84.650627 0 0 10 -32
2020-07-17 15:05:39 GMT 39.053101 -84.650642 0 359 9 -32
2020-07-17 15:05:36 GMT 39.053101 -84.650642 0 359 10 -32
2020-07-17 15:05:33 GMT 39.052971 -84.650620 0 5 11 -32
2020-07-17 15:05:30 GMT 39.052811 -84.650620 0 8 11 -32
2020-07-17 15:05:27 GMT 39.052662 -84.650642 0 7 11 -32
2020-07-17 15:05:24 GMT 39.052490 -84.650681 0 10 11 -32
2020-07-17 15:05:21 GMT 39.052361 -84.650742 0 0 10 -32
2020-07-17 15:05:18 GMT 39.052200 -84.650742 0 356 10 -32
2020-07-17 15:05:15 GMT 39.052052 -84.650726 0 356 10 -32
2020-07-17 15:05:12 GMT 39.051781 -84.650681 0 339 11 -32
2020-07-17 15:05:09 GMT 39.051781 -84.650681 0 312 8 -32
2020-07-17 15:05:06 GMT 39.051628 -84.650650 0 285 10 -32
2020-07-17 15:05:03 GMT 39.051571 -84.650490 0 279 9 -32
2020-07-17 15:05:00 GMT 39.051540 -84.650337 0 270 11 -32
2020-07-17 15:04:57 GMT 39.051540 -84.650146 0 269 11 -32
2020-07-17 15:04:54 GMT 39.051529 -84.649948 0 269 10 -32
2020-07-17 15:04:51 GMT 39.051529 -84.649773 0 264 10 -32
2020-07-17 15:04:48 GMT 39.051552 -84.649597 0 271 11 -32
2020-07-17 15:04:45 GMT 39.051552 -84.649422 0 277 11 -32
2020-07-17 15:04:42 GMT 39.051498 -84.649002 0 325 9 -32
2020-07-17 15:04:36 GMT 39.051399 -84.648911 0 343 10 -32
2020-07-17 15:04:27 GMT 39.050919 -84.648849 0 359 16 -32
2020-07-17 15:04:24 GMT 39.050701 -84.648857 0 357 18 -32
2020-07-17 15:04:21 GMT 39.050220 -84.648819 0 358 19 -32
2020-07-17 15:04:12 GMT 39.049690 -84.648827 0 359 20 -32
2020-07-17 15:04:09 GMT 39.049419 -84.648819 0 358 20 -32
2020-07-17 15:04:06 GMT 39.049141 -84.648819 0 357 21 -32
2020-07-17 15:04:03 GMT 39.048882 -84.648781 0 356 19 -32
2020-07-17 15:04:00 GMT 39.048519 -84.648842 0 359 20 -32
2020-07-17 15:03:57 GMT 39.048248 -84.648842 0 358 20 -32
2020-07-17 15:03:54 GMT 39.047981 -84.648811 0 1 24 -32
2020-07-17 15:03:51 GMT 39.047661 -84.648842 0 0 19 -32
2020-07-17 15:03:48 GMT 39.047428 -84.648811 0 358 20 -32
2020-07-17 15:03:45 GMT 39.046741 -84.648819 0 359 25 -32
2020-07-17 15:03:42 GMT 39.046410 -84.648819 0 359 26 -32
2020-07-17 15:03:39 GMT 39.046410 -84.648819 0 359 26 -32
2020-07-17 15:03:36 GMT 39.046051 -84.648819 0 359 27 -32
2020-07-17 15:03:33 GMT 39.045670 -84.648819 0 357 27 -32
2020-07-17 15:03:30 GMT 39.045311 -84.648788 0 358 27 -32
2020-07-17 15:03:27 GMT 39.044941 -84.648788 0 1 27 -32
2020-07-17 15:03:24 GMT 39.044559 -84.648804 0 0 27 -32
2020-07-17 15:03:21 GMT 39.043812 -84.648804 0 0 28 -32
2020-07-17 15:03:18 GMT 39.043812 -84.648804 0 0 27 -32
2020-07-17 15:03:15 GMT 39.043430 -84.648819 0 0 28 -32
2020-07-17 15:03:12 GMT 39.043041 -84.648819 0 0 27 -32
2020-07-17 15:03:09 GMT 39.042671 -84.648819 0 359 27 -32
2020-07-17 15:03:06 GMT 39.042278 -84.648811 0 0 27 -32
2020-07-17 15:03:03 GMT 39.041889 -84.648819 0 359 26 -32
2020-07-17 15:03:00 GMT 39.041519 -84.648804 0 1 26 -32
2020-07-17 15:02:57 GMT 39.041161 -84.648819 0 1 26 -32
2020-07-17 15:02:54 GMT 39.040791 -84.648819 0 0 25 -32
2020-07-17 15:02:51 GMT 39.040428 -84.648827 0 359 24 -32
2020-07-17 15:02:48 GMT 39.040089 -84.648827 0 0 25 -32
2020-07-17 15:02:45 GMT 39.039742 -84.648827 0 0 25 -32
2020-07-17 15:02:42 GMT 39.039391 -84.648842 0 0 24 -32
2020-07-17 15:02:39 GMT 39.039051 -84.648849 0 359 23 -32
2020-07-17 15:02:36 GMT 39.038422 -84.648827 0 0 23 -32
2020-07-17 15:02:33 GMT 39.038422 -84.648827 0 359 22 -32
2020-07-17 15:02:30 GMT 39.038101 -84.648827 0 0 22 -32
2020-07-17 15:02:27 GMT 39.037781 -84.648842 0 1 22 -32
2020-07-17 15:02:24 GMT 39.037472 -84.648827 0 2 21 -32
2020-07-17 15:02:21 GMT 39.037170 -84.648827 0 5 20 -32
2020-07-17 15:02:18 GMT 39.036911 -84.648880 0 4 19 -32
2020-07-17 15:02:15 GMT 39.036350 -84.648842 0 1 18 -32
2020-07-17 15:02:12 GMT 39.036350 -84.648842 0 1 18 -32
2020-07-17 15:02:09 GMT 39.036098 -84.648857 0 357 16 -32
2020-07-17 15:02:06 GMT 39.035870 -84.648872 0 357 17 -32
2020-07-17 15:02:03 GMT 39.035641 -84.648842 0 358 12 -32
2020-07-17 15:02:00 GMT 39.035450 -84.648827 0 5 19 -32
2020-07-17 15:01:57 GMT 39.035179 -84.648880 0 358 14 -32
2020-07-17 15:01:54 GMT 39.035000 -84.648849 0 0 13 -32
2020-07-17 15:01:51 GMT 39.034809 -84.648880 0 351 12 -32
2020-07-17 15:01:48 GMT 39.034630 -84.648880 0 321 11 -32
2020-07-17 15:01:45 GMT 39.034489 -84.648773 0 288 12 -32
2020-07-17 15:01:42 GMT 39.034420 -84.648582 0 280 11 -32
2020-07-17 15:01:39 GMT 39.034382 -84.648399 0 267 12 -32
2020-07-17 15:01:36 GMT 39.034382 -84.648170 0 265 12 -32
2020-07-17 15:01:33 GMT 39.034512 -84.647774 0 236 10 -32
2020-07-17 15:01:30 GMT 39.034630 -84.647530 0 223 16 -32
2020-07-17 15:01:27 GMT 39.034630 -84.647530 0 216 14 -32
2020-07-17 15:01:24 GMT 39.034790 -84.647339 0 212 14 -32
2020-07-17 15:01:21 GMT 39.034939 -84.647179 0 203 15 -32
2020-07-17 15:01:18 GMT 39.035118 -84.647087 0 197 18 -32
2020-07-17 15:01:15 GMT 39.035591 -84.646881 0 195 20 -32
2020-07-17 15:01:09 GMT 39.035881 -84.646797 0 183 24 -32
2020-07-17 15:01:06 GMT 39.036610 -84.646751 0 181 33 -32
2020-07-17 15:01:03 GMT 39.036610 -84.646751 0 180 35 -32
2020-07-17 15:01:00 GMT 39.037090 -84.646721 0 177 39 -32
2020-07-17 15:00:57 GMT 39.037621 -84.646751 0 180 49 -32
2020-07-17 15:00:54 GMT 39.038261 -84.646729 0 180 52 -32
2020-07-17 15:00:51 GMT 39.038971 -84.646721 0 180 55 -32
2020-07-17 15:00:48 GMT 39.039730 -84.646713 0 180 67 -32
2020-07-17 15:00:45 GMT 39.040661 -84.646667 0 180 68 -32
2020-07-17 15:00:42 GMT 39.041611 -84.646690 0 179 72 -32
2020-07-17 15:00:39 GMT 39.042679 -84.646690 0 179 85 -32
2020-07-17 15:00:36 GMT 39.043900 -84.646713 0 179 92 -32
2020-07-17 15:00:33 GMT 39.045261 -84.646690 575 180 107 -32
2020-07-17 15:00:30 GMT 39.046780 -84.646652 575 179 119 -768
2020-07-17 15:00:24 GMT 39.052010 -84.646683 600 180 132 -128
2020-07-17 15:00:18 GMT 39.053871 -84.646683 625 180 133 -768
2020-07-17 15:00:15 GMT 39.057861 -84.646675 675 180 132 -768
2020-07-17 15:00:12 GMT 39.057861 -84.646675 700 181 132 -640
2020-07-17 15:00:02 GMT 39.063728 -84.646568 825 179 132 -768
2020-07-17 14:59:59 GMT 39.065552 -84.646568 850 180 132 -768
2020-07-17 14:59:56 GMT 39.067390 -84.646591 875 180 133 -768
2020-07-17 14:59:53 GMT 39.069241 -84.646584 900 180 132 -768
2020-07-17 14:59:50 GMT 39.071079 -84.646538 925 180 131 -768
2020-07-17 14:59:47 GMT 39.072891 -84.646500 950 180 131 -768
2020-07-17 14:59:44 GMT 39.074760 -84.646431 1,025 179 131 -832
2020-07-17 14:59:41 GMT 39.076569 -84.646446 1,050 179 131 -832
2020-07-17 14:59:38 GMT 39.078388 -84.646500 1,075 179 131 -832
2020-07-17 14:59:35 GMT 39.080158 -84.646523 1,125 180 134 -832
2020-07-17 14:59:32 GMT 39.082001 -84.646523 1,125 181 134 -832
2020-07-17 14:59:29 GMT 39.083851 -84.646446 1,150 181 135 -832
2020-07-17 14:59:26 GMT 39.085732 -84.646393 1,225 180 138 -832
2020-07-17 14:59:23 GMT 39.089600 -84.646347 1,275 179 138 -832
2020-07-17 14:59:20 GMT 39.089600 -84.646347 1,300 179 137 -832
2020-07-17 14:59:17 GMT 39.091511 -84.646347 1,325 179 137 -832
2020-07-17 14:59:14 GMT 39.093441 -84.646347 1,350 179 135 -832
2020-07-17 14:59:11 GMT 39.095348 -84.646339 1,400 179 134 -832
2020-07-17 14:59:08 GMT 39.097221 -84.646347 1,400 179 134 -832
2020-07-17 14:59:05 GMT 39.099079 -84.646393 1,425 179 135 -832
2020-07-17 14:59:02 GMT 39.100948 -84.646408 1,475 180 135 -832
2020-07-17 14:58:59 GMT 39.104691 -84.646378 1,550 179 136 -832
2020-07-17 14:58:56 GMT 39.104691 -84.646378 1,575 179 136 -832
2020-07-17 14:58:53 GMT 39.106560 -84.646423 1,600 179 136 -832
2020-07-17 14:58:50 GMT 39.108452 -84.646446 1,650 180 136 -832
2020-07-17 14:58:47 GMT 39.110329 -84.646523 1,675 181 136 -832
2020-07-17 14:58:41 GMT 39.114109 -84.646439 1,750 182 136 -896
2020-07-17 14:58:38 GMT 39.116264 -84.646362 1,775 182 135 -640
2020-07-17 14:58:33 GMT 39.119061 -84.646141 1,850 180 137 -1280
2020-07-17 14:58:30 GMT 39.120918 -84.646080 1,875 180 138 -1280
2020-07-17 14:58:27 GMT 39.122810 -84.646042 1,875 180 139 -1280
2020-07-17 14:58:24 GMT 39.124710 -84.646019 1,925 180 141 -1280
2020-07-17 14:58:21 GMT 39.126621 -84.646004 1,950 180 143 -1280
2020-07-17 14:58:18 GMT 39.130550 -84.645927 2,025 180 144 -1280
2020-07-17 14:58:12 GMT 39.132519 -84.645927 2,075 180 147 -1280
2020-07-17 14:58:06 GMT 39.136532 -84.645889 2,150 182 150 -1280
2020-07-17 14:58:03 GMT 39.138561 -84.645813 2,200 182 154 -1280
2020-07-17 14:58:00 GMT 39.140652 -84.645699 2,200 183 155 -1280
2020-07-17 14:57:57 GMT 39.142780 -84.645622 2,250 184 157 -1280
2020-07-17 14:57:54 GMT 39.144909 -84.645447 2,275 185 158 -1280
2020-07-17 14:57:51 GMT 39.147121 -84.645187 2,325 184 158 -1280
2020-07-17 14:57:48 GMT 39.149239 -84.645058 2,350 185 161 -1280
2020-07-17 14:57:45 GMT 39.151459 -84.644737 2,425 189 165 -64
2020-07-17 14:57:42 GMT 39.153709 -84.644363 2,450 189 165 -64
2020-07-17 14:57:39 GMT 39.155949 -84.643929 2,700 190 167 -64
2020-07-17 14:57:36 GMT 39.158169 -84.643417 2,700 190 170 -64
2020-07-17 14:57:33 GMT 39.160351 -84.642891 2,700 190 184 -64
2020-07-17 14:57:30 GMT 39.163029 -84.643257 2,700 204 188 96
2020-07-17 14:57:27 GMT 39.165581 -84.644249 2,700 204 188 96
2020-07-17 14:57:24 GMT 39.168041 -84.642403 2,700 217 205 96
2020-07-17 14:57:21 GMT 39.175049 -84.641541 2,700 234 209 -96
2020-07-17 14:57:18 GMT 39.176170 -84.638092 2,700 251 210 -96
2020-07-17 14:57:15 GMT 39.176170 -84.638092 2,700 251 210 -96
2020-07-17 14:57:12 GMT 39.178558 -84.635719 2,700 259 215 -96
2020-07-17 14:57:09 GMT 39.180069 -84.632561 2,700 262 218 -96
2020-07-17 14:57:06 GMT 39.180470 -84.628700 2,700 262 218 -96
2020-07-17 14:57:03 GMT 39.181019 -84.625130 2,800 263 221 64
2020-07-17 14:57:00 GMT 39.181320 -84.621384 2,800 263 223 -224
2020-07-17 14:56:57 GMT 39.182110 -84.613693 2,800 263 223 -224
2020-07-17 14:56:54 GMT 39.182468 -84.609680 2,800 264 226 -224
2020-07-17 14:56:51 GMT 39.182468 -84.609680 2,775 264 219 -384
2020-07-17 14:56:48 GMT 39.182961 -84.605949 2,800 266 231 -224
2020-07-17 14:56:45 GMT 39.183811 -84.601929 2,900 271 231 -1888
2020-07-17 14:56:42 GMT 39.183891 -84.597809 2,900 271 231 -1888
2020-07-17 14:56:39 GMT 39.184769 -84.594131 3,000 276 237 -1888
2020-07-17 14:56:36 GMT 39.185619 -84.589867 3,000 276 237 -1888
2020-07-17 14:56:33 GMT 39.185020 -84.585678 3,000 282 238 -1888
2020-07-17 14:56:30 GMT 39.185280 -84.581520 3,100 288 242 -1888
2020-07-17 14:56:27 GMT 39.185509 -84.577271 3,100 295 247 -1888
2020-07-17 14:56:24 GMT 39.184231 -84.573174 3,100 295 247 -1888
2020-07-17 14:56:21 GMT 39.183640 -84.568291 3,200 305 240 -1888
2020-07-17 14:56:18 GMT 39.182579 -84.563057 3,500 317 224 -1888
2020-07-17 14:56:15 GMT 39.180561 -84.560013 3,500 317 224 -1888
2020-07-17 14:56:12 GMT 39.179111 -84.555008 3,500 334 211 -1888
2020-07-17 14:56:09 GMT 39.177422 -84.550522 3,800 348 220 -1888
2020-07-17 14:56:06 GMT 39.174450 -84.549583 3,800 348 220 -1888
2020-07-17 14:56:03 GMT 39.171982 -84.547218 3,800 352 229 -1888
2020-07-17 14:56:00 GMT 39.169060 -84.545677 3,900 355 233 -1888
2020-07-17 14:55:57 GMT 39.165829 -84.545311 3,900 355 233 -1888
2020-07-17 14:55:54 GMT 39.162579 -84.544533 4,100 356 233 -1888
2020-07-17 14:55:51 GMT 39.159222 -84.544144 4,100 356 233 -1888
2020-07-17 14:55:48 GMT 39.156204 -84.544189 4,100 356 234 -1024
2020-07-17 14:55:45 GMT 39.149509 -84.543312 4,400 356 231 -2336
2020-07-17 14:55:42 GMT 39.146320 -84.543068 4,250 357 236 -1728
2020-07-17 14:55:39 GMT 39.146320 -84.543068 4,400 356 230 -2336
2020-07-17 14:55:36 GMT 39.143200 -84.542870 4,500 356 231 -2336
2020-07-17 14:55:33 GMT 39.139992 -84.542618 4,600 355 232 -2336
2020-07-17 14:55:30 GMT 39.136791 -84.542511 4,600 355 232 -2336
2020-07-17 14:55:27 GMT 39.133671 -84.542191 4,800 356 234 -2336
2020-07-17 14:55:24 GMT 39.130421 -84.541901 4,700 357 236 -1792
2020-07-17 14:55:18 GMT 39.123642 -84.541405 4,900 357 237 -1728
2020-07-17 14:55:15 GMT 39.121243 -84.541199 5,025 357 238 -1664
2020-07-17 14:55:12 GMT 39.117561 -84.540482 5,050 357 243 -2336
2020-07-17 14:55:09 GMT 39.114311 -84.540176 5,100 357 246 -2336
2020-07-17 14:55:06 GMT 39.110889 -84.540031 5,200 357 251 -2336
2020-07-17 14:55:03 GMT 39.107498 -84.539726 5,225 357 252 -2336
2020-07-17 14:55:00 GMT 39.103951 -84.539520 5,300 356 253 -2336
2020-07-17 14:54:57 GMT 39.100471 -84.539223 5,350 357 252 -2336
2020-07-17 14:54:54 GMT 39.097019 -84.538986 5,500 357 254 -2336
2020-07-17 14:54:51 GMT 39.093491 -84.538773 5,550 357 254 -2336
2020-07-17 14:54:48 GMT 39.090061 -84.538391 5,675 357 257 -2336
2020-07-17 14:54:45 GMT 39.088181 -84.537659 5,800 358 275 -1600
2020-07-17 14:54:42 GMT 39.083031 -84.537880 5,825 357 258 -1856
2020-07-17 14:54:39 GMT 39.079491 -84.537529 5,975 358 260 -1504
2020-07-17 14:54:36 GMT 39.075932 -84.537193 6,025 359 261 -1536
2020-07-17 14:54:33 GMT 39.072399 -84.536911 6,125 359 264 -1760
2020-07-17 14:54:30 GMT 39.068802 -84.536819 6,200 359 265 -1728
2020-07-17 14:54:27 GMT 39.065159 -84.536758 6,300 0 267 -1920
2020-07-17 14:54:24 GMT 39.061440 -84.536781 6,375 359 267 -2048
2020-07-17 14:54:21 GMT 39.057751 -84.536743 6,500 0 268 -1952
2020-07-17 14:54:18 GMT 39.050331 -84.537354 6,625 358 269 -1952
2020-07-17 14:54:15 GMT 39.050331 -84.537354 6,700 358 269 -1952
2020-07-17 14:54:12 GMT 39.046612 -84.537369 6,900 358 277 -1632
2020-07-17 14:54:09 GMT 39.042858 -84.537178 6,900 358 270 -1728
2020-07-17 14:54:06 GMT 39.038582 -84.535652 7,000 359 271 -1824
2020-07-17 14:54:03 GMT 39.035400 -84.536041 7,075 1 274 -1888
2020-07-17 14:54:00 GMT 39.031509 -84.535950 7,125 1 273 -1920
2020-07-17 14:53:57 GMT 39.027161 -84.535027 7,200 3 269 -1760
2020-07-17 14:53:54 GMT 39.023281 -84.534950 7,425 358 284 -1920
2020-07-17 14:53:51 GMT 39.019348 -84.534859 7,525 359 269 -1632
2020-07-17 14:53:48 GMT 39.015411 -84.534714 7,525 356 280 -1952
2020-07-17 14:53:45 GMT 39.014198 -84.541832 7,625 350 294 -2592
2020-07-17 14:53:42 GMT 39.010651 -84.542313 7,700 359 283 -2368
2020-07-17 14:53:39 GMT 39.006962 -84.542503 7,900 358 283 -2432
2020-07-17 14:53:36 GMT 38.999111 -84.541107 8,025 345 314 -2592
2020-07-17 14:53:33 GMT 38.999111 -84.541107 8,150 345 320 -352
2020-07-17 14:53:30 GMT 38.994942 -84.539932 8,300 344 327 -352
2020-07-17 14:53:27 GMT 38.991119 -84.539131 8,375 344 338 -352
2020-07-17 14:53:24 GMT 38.986568 -84.537651 8,475 344 338 -352
2020-07-17 14:53:21 GMT 38.981670 -84.535721 8,550 342 320 -352
2020-07-17 14:53:18 GMT 38.976971 -84.533813 8,575 340 300 -352
2020-07-17 14:53:15 GMT 38.973587 -84.532692 8,625 351 284 -960
2020-07-17 14:53:10 GMT 38.965527 -84.530273 8,700 341 283 -512
2020-07-17 14:53:06 GMT 38.960861 -84.527916 8,725 333 282 -64
2020-07-17 14:53:03 GMT 38.953537 -84.523079 8,725 332 282 0
2020-07-17 14:52:59 GMT 38.953537 -84.523079 8,725 331 282 64
2020-07-17 14:52:55 GMT 38.948364 -84.519432 8,725 331 282 64
2020-07-17 14:52:49 GMT 38.941498 -84.514542 8,725 332 283 64
2020-07-17 14:52:45 GMT 38.933578 -84.508926 8,700 331 283 64
2020-07-17 14:52:42 GMT 38.933578 -84.508926 8,700 331 283 64
2020-07-17 14:52:38 GMT 38.928982 -84.505615 8,700 331 283 64
2020-07-17 14:52:34 GMT 38.924835 -84.502716 8,700 331 283 64
2020-07-17 14:52:28 GMT 38.917282 -84.497284 8,700 331 282 128
2020-07-17 14:52:24 GMT 38.913071 -84.494293 8,700 331 281 64
2020-07-17 14:52:21 GMT 38.905334 -84.488747 8,700 331 280 -256
2020-07-17 14:52:18 GMT 38.905334 -84.488747 8,725 331 280 -256
2020-07-17 14:52:13 GMT 38.900818 -84.485535 9,600 332 276 -2176
2020-07-17 14:52:09 GMT 38.896683 -84.482597 8,800 332 281 -1024
2020-07-17 14:52:06 GMT 38.893044 -84.480042 8,875 331 280 -1280
2020-07-17 14:52:02 GMT 38.889229 -84.477295 8,975 332 278 -1472
2020-07-17 14:51:57 GMT 38.882080 -84.472328 9,150 332 277 -1856
2020-07-17 14:51:52 GMT 38.877590 -84.469177 9,275 332 276 -2176
2020-07-17 14:51:48 GMT 38.872330 -84.465515 9,650 332 277 -2432
2020-07-17 14:51:45 GMT 38.869720 -84.463684 10,025 332 280 -2048
2020-07-17 14:51:39 GMT 38.862274 -84.458496 9,850 332 279 -2112
2020-07-17 14:51:36 GMT 38.858643 -84.455994 9,850 332 279 -2112
2020-07-17 14:51:32 GMT 38.853989 -84.452759 10,050 332 281 -1920
2020-07-17 14:51:28 GMT 38.849945 -84.449997 10,150 332 283 -1728
2020-07-17 14:51:25 GMT 38.846649 -84.447723 10,225 332 287 -1408
2020-07-17 14:51:18 GMT 38.837677 -84.441574 10,375 332 295 -960
2020-07-17 14:51:14 GMT 38.833923 -84.439011 10,425 332 298 -896
2020-07-17 14:51:10 GMT 38.829269 -84.435730 10,475 332 311 -576
2020-07-17 14:51:07 GMT 38.814789 -84.425636 10,600 332 327 -512
2020-07-17 14:51:00 GMT 38.814789 -84.425636 10,575 332 320 -448
2020-07-17 14:50:57 GMT 38.809017 -84.421570 10,600 332 326 -448
2020-07-17 14:50:51 GMT 38.801804 -84.416504 10,650 332 331 -512
2020-07-17 14:50:44 GMT 38.795059 -84.411781 10,675 332 334 0
2020-07-17 14:50:40 GMT 38.788696 -84.407242 10,700 332 334 -64
2020-07-17 14:50:35 GMT 38.781647 -84.402290 10,700 332 334 0
2020-07-17 14:50:30 GMT 38.774963 -84.397568 10,700 332 334 0
2020-07-17 14:50:25 GMT 38.769150 -84.393448 10,725 332 334 0
2020-07-17 14:50:14 GMT 38.754459 -84.383057 10,725 332 334 0
2020-07-17 14:50:07 GMT 38.744171 -84.375793 10,700 331 335 0
2020-07-17 14:50:02 GMT 38.738434 -84.371773 10,700 331 335 0
2020-07-17 14:49:57 GMT 38.731522 -84.366882 10,700 332 334 0
2020-07-17 14:49:51 GMT 38.723236 -84.361031 10,700 331 335 0
2020-07-17 14:49:48 GMT 38.717834 -84.357147 10,700 332 334 -64
2020-07-17 14:49:44 GMT 38.712517 -84.353455 10,700 332 334 0
2020-07-17 14:49:36 GMT 38.702740 -84.346558 10,725 332 334 -64
2020-07-17 14:49:33 GMT 38.698269 -84.343384 10,725 332 334 0
2020-07-17 14:49:27 GMT 38.688496 -84.336487 10,700 332 334 64
2020-07-17 14:49:23 GMT 38.683468 -84.332947 10,700 332 334 0
2020-07-17 14:49:15 GMT 38.674072 -84.326401 10,700 332 335 -64
2020-07-17 14:49:11 GMT 38.669174 -84.322937 10,700 332 335 -64
2020-07-17 14:49:05 GMT 38.659912 -84.316467 10,725 332 335 0
2020-07-17 14:49:02 GMT 38.654884 -84.312927 10,725 332 335 64
2020-07-17 14:48:55 GMT 38.645203 -84.306152 10,700 332 335 64
2020-07-17 14:48:51 GMT 38.640965 -84.303223 10,700 332 335 0
2020-07-17 14:48:44 GMT 38.631699 -84.296692 10,700 332 337 0
2020-07-17 14:48:41 GMT 38.626953 -84.293335 10,700 331 336 0
2020-07-17 14:48:35 GMT 38.617920 -84.286987 10,700 331 336 0
2020-07-17 14:48:30 GMT 38.612503 -84.283112 10,700 331 336 0
2020-07-17 14:48:24 GMT 38.604996 -84.277855 10,700 331 336 0
2020-07-17 14:48:20 GMT 38.598228 -84.273071 10,700 331 335 0
2020-07-17 14:48:13 GMT 38.589111 -84.266632 10,700 331 335 0
2020-07-17 14:48:09 GMT 38.584263 -84.263123 10,700 331 335 0
2020-07-17 14:48:03 GMT 38.574921 -84.256477 10,700 331 334 0
2020-07-17 14:47:59 GMT 38.569786 -84.252869 10,700 331 334 0
2020-07-17 14:47:51 GMT 38.555008 -84.242325 10,700 331 334 0
2020-07-17 14:47:47 GMT 38.555008 -84.242325 10,700 331 334 0
2020-07-17 14:47:39 GMT 38.542366 -84.233154 10,700 331 333 0
2020-07-17 14:47:35 GMT 38.539108 -84.230835 10,725 331 333 0
2020-07-17 14:47:32 GMT 38.534546 -84.227524 10,700 331 334 0
2020-07-17 14:47:27 GMT 38.527405 -84.222328 10,700 331 335 0
2020-07-17 14:47:22 GMT 38.521233 -84.217834 10,700 331 335 0
2020-07-17 14:47:13 GMT 38.507591 -84.207947 10,700 331 335 0
2020-07-17 14:47:09 GMT 38.501678 -84.203636 10,700 331 335 -64
2020-07-17 14:47:06 GMT 38.497787 -84.200829 10,700 331 335 -64
2020-07-17 14:46:31 GMT 38.451828 -84.167458 10,725 335 334 0
2020-07-17 14:46:20 GMT 38.436996 -84.156822 10,700 332 333 0
2020-07-17 14:46:10 GMT 38.421749 -84.147278 10,700 335 334 0
2020-07-17 14:45:59 GMT 38.408249 -84.139275 10,700 335 334 64
2020-07-17 14:45:50 GMT 38.393494 -84.130493 10,700 335 335 0
2020-07-17 14:45:38 GMT 38.379318 -84.122025 10,700 335 335 0
We lost coverage of the aircraft here for a total of 16 minutes
2020-07-17 14:29:42 GMT 36.959427 -83.710388 10,700 8 345 0
2020-07-17 14:29:38 GMT 36.954529 -83.711266 10,700 8 345 0
2020-07-17 14:29:29 GMT 36.938690 -83.714127 10,700 8 345 0
2020-07-17 14:29:19 GMT 36.922211 -83.717072 10,700 8 345 0
2020-07-17 14:29:07 GMT 36.905594 -83.720085 10,700 8 344 0
2020-07-17 14:28:58 GMT 36.890579 -83.722771 10,700 8 344 -64
2020-07-17 14:28:47 GMT 36.871811 -83.726166 10,700 8 343 0
2020-07-17 14:28:36 GMT 36.855595 -83.729019 10,700 8 343 -64
2020-07-17 14:28:15 GMT 36.822353 -83.734810 10,700 8 342 64
2020-07-17 14:28:06 GMT 36.808205 -83.737267 10,700 8 343 -64
2020-07-17 14:27:55 GMT 36.791817 -83.740128 10,725 8 343 64
2020-07-17 14:27:42 GMT 36.768631 -83.744202 10,700 8 344 0
2020-07-17 14:27:34 GMT 36.757740 -83.746094 10,700 8 344 0
2020-07-17 14:27:19 GMT 36.733887 -83.750320 10,700 8 344 0
2020-07-17 14:27:14 GMT 36.725510 -83.751816 10,700 8 344 -64
2020-07-17 14:27:04 GMT 36.710674 -83.754448 10,700 8 343 0
2020-07-17 14:26:52 GMT 36.690659 -83.758011 10,700 8 343 64
2020-07-17 14:26:20 GMT 36.641739 -83.766632 10,700 8 342 0
2020-07-17 14:26:13 GMT 36.628044 -83.769058 10,700 8 342 0
2020-07-17 14:26:01 GMT 36.612637 -83.771805 10,725 8 343 0
2020-07-17 14:25:51 GMT 36.595181 -83.774841 10,700 8 343 0
2020-07-17 14:25:18 GMT 36.544922 -83.783745 10,700 8 343 0
2020-07-17 14:25:10 GMT 36.531052 -83.786140 10,725 8 342 -64
2020-07-17 14:25:00 GMT 36.515533 -83.788895 10,725 8 342 0
2020-07-17 14:24:49 GMT 36.496170 -83.792267 10,700 8 343 64
2020-07-17 14:24:38 GMT 36.481499 -83.794830 10,700 7 345 -64
2020-07-17 14:24:28 GMT 36.465500 -83.797585 10,725 8 344 64
2020-07-17 14:24:19 GMT 36.447647 -83.800674 10,700 8 344 0
2020-07-17 14:24:07 GMT 36.432293 -83.803360 10,700 7 345 0
2020-07-17 14:23:57 GMT 36.416153 -83.806114 10,700 8 344 64
2020-07-17 14:23:48 GMT 36.400406 -83.808922 10,700 8 343 -64
2020-07-17 14:23:37 GMT 36.384670 -83.811661 10,725 8 341 -64
2020-07-17 14:23:17 GMT 36.352921 -83.817207 10,700 8 341 0
2020-07-17 14:23:05 GMT 36.335091 -83.820366 10,725 8 342 0
2020-07-17 14:22:56 GMT 36.319824 -83.823051 10,725 8 342 0
2020-07-17 14:22:46 GMT 36.304550 -83.825745 10,700 8 344 0
2020-07-17 14:22:35 GMT 36.288074 -83.828606 10,700 7 346 -64
2020-07-17 14:22:28 GMT 36.275528 -83.830772 10,725 7 346 0
2020-07-17 14:22:25 GMT 36.271221 -83.831528 10,725 7 345 0
2020-07-17 14:22:17 GMT 36.258682 -83.833694 10,725 8 346 0
2020-07-17 14:22:14 GMT 36.254745 -83.834381 10,700 8 346 0
2020-07-17 14:22:05 GMT 36.237579 -83.837418 10,700 8 346 0
2020-07-17 14:21:57 GMT 36.225128 -83.839584 10,700 8 347 0
2020-07-17 14:21:54 GMT 36.222107 -83.840103 10,700 8 347 0
2020-07-17 14:21:46 GMT 36.209541 -83.842339 10,700 8 346 0
2020-07-17 14:21:42 GMT 36.202045 -83.843620 10,700 8 346 0
2020-07-17 14:21:34 GMT 36.188686 -83.845963 10,700 8 346 0
2020-07-17 14:21:26 GMT 36.171570 -83.848969 10,725 8 345 0
2020-07-17 14:21:16 GMT 36.160950 -83.850800 10,700 8 345 64
2020-07-17 14:21:12 GMT 36.156193 -83.851631 10,700 7 345 64
2020-07-17 14:21:05 GMT 36.143856 -83.853790 10,700 7 345 -64
2020-07-17 14:21:02 GMT 36.139069 -83.854637 10,700 7 346 0
2020-07-17 14:20:55 GMT 36.127670 -83.856583 10,700 7 345 64
2020-07-17 14:20:51 GMT 36.122581 -83.857414 10,700 7 345 64
2020-07-17 14:20:41 GMT 36.106888 -83.859962 10,700 7 344 -64
2020-07-17 14:20:32 GMT 36.090408 -83.862534 10,725 7 343 0
2020-07-17 14:20:23 GMT 36.077179 -83.864708 10,700 9 343 256
2020-07-17 14:20:18 GMT 36.069351 -83.866653 10,700 11 344 192
2020-07-17 14:20:10 GMT 36.058525 -83.871437 10,675 25 347 -64
2020-07-17 14:20:02 GMT 36.043488 -83.882957 10,700 35 348 0
2020-07-17 14:19:56 GMT 36.038368 -83.887451 10,700 35 347 64
2020-07-17 14:19:52 GMT 36.033371 -83.891830 10,700 35 348 64
2020-07-17 14:19:44 GMT 36.022339 -83.901558 10,700 35 348 0
2020-07-17 14:19:40 GMT 36.017258 -83.906075 10,700 35 349 -64
2020-07-17 14:19:31 GMT 36.006729 -83.915405 10,725 35 349 0
2020-07-17 14:19:28 GMT 36.002655 -83.919006 10,725 35 349 0
2020-07-17 14:19:22 GMT 35.993134 -83.927361 10,700 35 351 64
2020-07-17 14:19:18 GMT 35.989471 -83.930626 10,700 35 351 64
2020-07-17 14:19:09 GMT 35.976593 -83.941978 10,700 35 353 64
2020-07-17 14:19:00 GMT 35.961884 -83.955009 10,675 35 347 -128
2020-07-17 14:18:57 GMT 35.957508 -83.958862 10,675 35 347 -128
2020-07-17 14:18:50 GMT 35.951477 -83.964211 10,700 35 345 -64
2020-07-17 14:18:45 GMT 35.944798 -83.970139 10,700 35 336 192
2020-07-17 14:18:38 GMT 35.935730 -83.978172 10,625 35 322 768
2020-07-17 14:18:32 GMT 35.929714 -83.983521 10,550 35 315 1152
2020-07-17 14:18:29 GMT 35.926895 -83.986015 10,500 35 311 1344
2020-07-17 14:18:26 GMT 35.922821 -83.989677 10,400 36 307 1600
2020-07-17 14:18:20 GMT 35.911560 -83.999771 10,050 36 298 2432
2020-07-17 14:18:09 GMT 35.903275 -84.007240 9,700 36 294 3200
2020-07-17 14:18:06 GMT 35.900528 -84.009705 9,575 36 294 3264
2020-07-17 14:17:58 GMT 35.891922 -84.017372 9,150 36 294 2944
2020-07-17 14:17:55 GMT 35.888626 -84.020348 9,000 35 292 2880
2020-07-17 14:17:48 GMT 35.880463 -84.027702 8,650 36 289 3008
2020-07-17 14:17:44 GMT 35.876358 -84.031387 8,500 36 289 3008
2020-07-17 14:17:35 GMT 35.860703 -84.045525 7,675 36 286 3392
2020-07-17 14:17:21 GMT 35.850994 -84.054352 7,125 36 285 3776
2020-07-17 14:17:15 GMT 35.844269 -84.060402 6,725 36 287 3712
2020-07-17 14:17:09 GMT 35.838776 -84.065269 6,425 35 286 3520
2020-07-17 14:17:03 GMT 35.832981 -84.070419 6,125 35 285 3520
2020-07-17 14:16:58 GMT 35.826096 -84.076256 5,750 32 284 3392
2020-07-17 14:16:53 GMT 35.820969 -84.080238 5,500 30 284 3264
2020-07-17 14:16:46 GMT 35.812637 -84.085236 5,125 14 278 2880
2020-07-17 14:16:43 GMT 35.808929 -84.086609 5,000 13 277 2880
2020-07-17 14:16:33 GMT 35.796478 -84.088036 4,550 355 267 2496
2020-07-17 14:16:22 GMT 35.784286 -84.084740 4,175 335 252 2112
2020-07-17 14:16:09 GMT 35.772278 -84.074104 3,725 314 237 2112
2020-07-17 14:16:02 GMT 35.768280 -84.065948 3,450 290 223 2112
We lost coverage of the aircraft here for a total of 124 minutes
2020-07-17 12:12:05 GMT 35.829674 -83.967804 1,025 225 128 -448
2020-07-17 12:11:55 GMT 35.833282 -83.963409 1,100 225 128 -640
2020-07-17 12:11:35 GMT 35.842056 -83.952492 1,325 226 123 -704
2020-07-17 12:11:27 GMT 35.845036 -83.948990 1,400 224 124 -768
2020-07-17 12:11:24 GMT 35.846146 -83.947739 1,425 224 124 -768
2020-07-17 12:11:14 GMT 35.850403 -83.942589 1,550 226 125 -640
2020-07-17 12:11:02 GMT 35.855347 -83.936348 1,675 225 125 -448
2020-07-17 12:10:53 GMT 35.858963 -83.932175 1,775 224 124 -576
2020-07-17 12:10:41 GMT 35.863953 -83.925652 1,875 233 124 -832
2020-07-17 12:10:32 GMT 35.866882 -83.920898 2,000 235 126 -960
2020-07-17 12:10:21 GMT 35.870220 -83.914688 2,200 244 128 -1216
2020-07-17 12:10:11 GMT 35.871944 -83.907379 2,375 267 134 -1088
2020-07-17 12:10:01 GMT 35.871571 -83.899376 2,575 283 142 -832
2020-07-17 12:09:51 GMT 35.869400 -83.890968 2,675 291 154 -320
2020-07-17 12:09:40 GMT 35.866360 -83.882248 2,850 303 166 -1472
2020-07-17 12:09:29 GMT 35.857933 -83.870567 3,175 315 172 -1088
2020-07-17 12:09:20 GMT 35.855465 -83.867584 3,250 318 175 -1536
2020-07-17 12:09:08 GMT 35.848854 -83.860336 3,475 320 181 -960
2020-07-17 12:09:03 GMT 35.845455 -83.856773 3,550 321 184 -768
2020-07-17 12:08:58 GMT 35.842209 -83.853607 3,600 325 187 -704
2020-07-17 12:08:49 GMT 35.834518 -83.848061 3,675 338 195 -256
2020-07-17 12:08:41 GMT 35.828045 -83.845261 3,700 344 200 -192
2020-07-17 12:08:38 GMT 35.824997 -83.844223 3,725 346 201 -64
2020-07-17 12:08:27 GMT 35.814926 -83.841248 3,725 348 204 0
2020-07-17 12:08:18 GMT 35.806091 -83.839531 3,700 356 212 64
2020-07-17 12:08:06 GMT 35.794716 -83.839531 3,675 4 228 64
2020-07-17 12:07:54 GMT 35.782288 -83.841705 3,700 12 237 0
2020-07-17 12:07:47 GMT 35.773636 -83.845024 3,700 19 239 -64
2020-07-17 12:07:42 GMT 35.769436 -83.846893 3,700 20 238 -128
2020-07-17 12:07:35 GMT 35.762268 -83.850403 3,725 25 237 -128
2020-07-17 12:07:25 GMT 35.752716 -83.856979 3,775 35 238 -448
2020-07-17 12:07:16 GMT 35.743515 -83.865166 3,900 36 241 -1088
2020-07-17 12:07:05 GMT 35.734177 -83.873634 4,100 36 243 -1216
2020-07-17 12:06:54 GMT 35.724651 -83.882248 4,325 36 243 -1344
2020-07-17 12:06:45 GMT 35.715500 -83.890572 4,550 36 243 -1216
2020-07-17 12:06:33 GMT 35.705566 -83.899612 4,775 36 246 -896
2020-07-17 12:06:30 GMT 35.702728 -83.902184 4,800 36 247 -768
2020-07-17 12:06:23 GMT 35.696045 -83.908257 4,850 36 252 -448
2020-07-17 12:06:18 GMT 35.691788 -83.912086 4,900 36 255 -512
2020-07-17 12:06:13 GMT 35.686665 -83.916786 4,950 36 257 -640
2020-07-17 12:06:07 GMT 35.680573 -83.922333 5,025 36 262 -512
2020-07-17 12:06:02 GMT 35.676052 -83.926369 5,050 36 264 -576
2020-07-17 12:05:55 GMT 35.669174 -83.932571 5,125 36 270 -576
2020-07-17 12:05:52 GMT 35.664696 -83.936600 5,200 36 272 -832
2020-07-17 12:05:42 GMT 35.655624 -83.944702 5,400 36 273 -1472
2020-07-17 12:05:31 GMT 35.643978 -83.955009 5,650 36 274 -1472
2020-07-17 12:05:22 GMT 35.634521 -83.963470 5,900 36 274 -1600
2020-07-17 12:05:08 GMT 35.620697 -83.975883 6,200 36 274 -1472
2020-07-17 12:05:00 GMT 35.612595 -83.982986 6,400 34 276 -1024
2020-07-17 12:04:54 GMT 35.606232 -83.988304 6,500 32 277 -960
2020-07-17 12:04:51 GMT 35.597488 -83.994370 6,600 23 278 -768
2020-07-17 12:04:40 GMT 35.589706 -83.997688 6,675 11 277 -448
2020-07-17 12:04:28 GMT 35.574280 -83.999290 6,700 0 276 64
2020-07-17 12:04:19 GMT 35.562286 -83.999458 6,700 0 276 0
2020-07-17 12:04:16 GMT 35.559448 -83.999458 6,700 0 276 64
2020-07-17 12:04:08 GMT 35.548874 -83.999535 6,700 0 275 0
2020-07-17 12:04:04 GMT 35.543659 -83.999596 6,725 0 275 -128
2020-07-17 12:03:58 GMT 35.536514 -83.999687 6,725 1 275 -128
2020-07-17 12:03:50 GMT 35.526573 -83.999947 6,775 1 274 -320
2020-07-17 12:03:44 GMT 35.518101 -84.000237 6,850 1 274 -960
2020-07-17 12:03:38 GMT 35.511475 -84.000435 6,950 1 275 -1344
2020-07-17 12:03:35 GMT 35.507492 -84.000488 7,025 1 276 -1216
2020-07-17 12:03:28 GMT 35.496872 -84.000763 7,175 0 277 -1344
2020-07-17 12:03:22 GMT 35.490463 -84.000893 7,300 0 277 -1472
2020-07-17 12:03:15 GMT 35.480942 -84.001007 7,500 0 278 -1472
2020-07-17 12:03:07 GMT 35.470478 -84.001053 7,675 0 279 -1472
2020-07-17 12:03:03 GMT 35.465683 -84.001114 7,775 0 279 -1536
2020-07-17 12:02:57 GMT 35.457047 -84.001236 7,925 0 280 -1408
2020-07-17 12:02:51 GMT 35.449760 -84.001289 8,050 0 282 -1152
2020-07-17 12:02:46 GMT 35.443726 -84.001350 8,150 0 283 -1152
2020-07-17 12:02:39 GMT 35.434120 -84.001465 8,250 0 287 -640
2020-07-17 12:02:33 GMT 35.426533 -84.001526 8,300 0 289 -576
2020-07-17 12:02:26 GMT 35.415733 -84.001640 8,475 0 293 -1600
2020-07-17 12:02:15 GMT 35.401886 -84.001808 8,750 0 294 -1472
2020-07-17 12:02:05 GMT 35.387970 -84.001984 9,025 0 295 -1664
2020-07-17 12:02:00 GMT 35.380863 -84.002106 9,150 0 295 -1600
2020-07-17 12:01:55 GMT 35.372906 -84.002167 9,300 0 296 -1536
2020-07-17 12:01:52 GMT 35.370300 -84.002213 9,350 0 296 -1472
2020-07-17 12:01:44 GMT 35.359360 -84.002441 9,525 0 296 -1216
2020-07-17 12:01:39 GMT 35.353455 -84.002548 9,600 0 297 -960
2020-07-17 12:01:33 GMT 35.345066 -84.002693 9,675 0 297 -576
2020-07-17 12:01:30 GMT 35.338875 -84.002747 9,725 0 298 -256
2020-07-17 12:01:24 GMT 35.331299 -84.002892 9,725 0 298 0
2020-07-17 12:01:21 GMT 35.328506 -84.002953 9,725 0 298 0
2020-07-17 12:01:17 GMT 35.323151 -84.003014 9,725 0 298 0
2020-07-17 12:01:13 GMT 35.316761 -84.003098 9,725 0 298 0
2020-07-17 12:01:09 GMT 35.310013 -84.003242 9,725 0 298 0
2020-07-17 12:01:06 GMT 35.306847 -84.003273 9,725 0 298 0
2020-07-17 12:01:00 GMT 35.298981 -84.003410 9,725 0 298 -64
2020-07-17 12:00:54 GMT 35.290558 -84.003525 9,750 0 297 0
2020-07-17 12:00:51 GMT 35.286968 -84.003571 9,750 0 297 0
2020-07-17 12:00:48 GMT 35.281723 -84.003578 9,750 0 297 0
2020-07-17 12:00:41 GMT 35.272957 -84.003685 9,725 0 297 0
2020-07-17 12:00:37 GMT 35.266617 -84.003815 9,725 0 297 0
2020-07-17 12:00:25 GMT 35.250610 -84.003975 9,725 0 298 0
2020-07-17 12:00:19 GMT 35.237503 -84.004211 9,725 0 298 64
2020-07-17 12:00:16 GMT 35.234177 -84.004272 9,725 0 298 0
2020-07-17 12:00:08 GMT 35.227249 -84.004379 9,725 0 298 0
2020-07-17 12:00:05 GMT 35.223816 -84.004433 9,725 0 299 0
2020-07-17 12:00:01 GMT 35.218140 -84.004547 9,725 0 299 0
2020-07-17 11:59:58 GMT 35.213425 -84.004662 9,725 0 299 0
2020-07-17 11:59:48 GMT 35.199966 -84.004829 9,725 0 298 0
2020-07-17 11:59:44 GMT 35.193352 -84.004898 9,725 0 298 0
2020-07-17 11:59:37 GMT 35.184647 -84.005074 9,725 0 297 0
2020-07-17 11:59:33 GMT 35.178734 -84.005127 9,725 0 297 0
2020-07-17 11:59:25 GMT 35.166908 -84.005241 9,725 0 297 0
2020-07-17 11:59:17 GMT 35.156616 -84.005386 9,725 0 296 0
2020-07-17 11:59:13 GMT 35.151966 -84.005409 9,725 0 296 0
2020-07-17 11:59:06 GMT 35.142052 -84.005585 9,725 0 296 0
2020-07-17 11:59:03 GMT 35.136978 -84.005646 9,725 0 296 0
2020-07-17 11:58:59 GMT 35.130833 -84.005699 9,725 0 296 0
2020-07-17 11:58:54 GMT 35.123795 -84.005836 9,725 0 296 0
2020-07-17 11:58:45 GMT 35.113655 -84.005981 9,725 0 296 64
2020-07-17 11:58:40 GMT 35.106354 -84.006119 9,725 0 296 0
2020-07-17 11:58:37 GMT 35.102669 -84.006157 9,725 0 296 0
2020-07-17 11:58:33 GMT 35.094986 -84.006271 9,725 0 296 0
2020-07-17 11:58:25 GMT 35.086330 -84.006439 9,725 0 296 0
2020-07-17 11:58:22 GMT 35.081406 -84.006508 9,750 0 295 -64
2020-07-17 11:58:17 GMT 35.074551 -84.006615 9,750 0 295 0
2020-07-17 11:58:04 GMT 35.057186 -84.006958 9,725 0 295 0
2020-07-17 11:57:54 GMT 35.042953 -84.007179 9,725 0 295 0
2020-07-17 11:57:43 GMT 35.027481 -84.007408 9,725 0 293 -64
2020-07-17 11:57:40 GMT 35.022720 -84.007523 9,725 0 295 0
2020-07-17 11:57:34 GMT 35.015442 -84.007629 9,725 0 295 0
2020-07-17 11:57:28 GMT 35.008213 -84.007706 9,725 0 294 0
2020-07-17 11:57:23 GMT 35.000885 -84.007797 9,725 0 294 0
2020-07-17 11:57:15 GMT 34.989441 -84.007912 9,725 0 293 0
2020-07-17 11:57:12 GMT 34.986614 -84.007935 9,750 0 293 0
2020-07-17 11:57:09 GMT 34.981308 -84.008041 9,725 0 293 0
2020-07-17 11:57:05 GMT 34.975571 -84.008133 9,725 0 293 0
2020-07-17 11:56:59 GMT 34.968925 -84.008270 9,725 0 294 -64
2020-07-17 11:56:54 GMT 34.960869 -84.008392 9,725 0 294 0
2020-07-17 11:56:47 GMT 34.950535 -84.008560 9,750 0 294 0
2020-07-17 11:56:44 GMT 34.941971 -84.008636 9,725 0 294 0
2020-07-17 11:56:31 GMT 34.930527 -84.008865 9,725 0 294 0
2020-07-17 11:56:20 GMT 34.915901 -84.009071 9,725 0 295 0
2020-07-17 11:56:10 GMT 34.901283 -84.009300 9,725 0 295 0
2020-07-17 11:56:06 GMT 34.895554 -84.009369 9,725 0 295 0
2020-07-17 11:56:01 GMT 34.887875 -84.009537 9,725 0 295 0
2020-07-17 11:55:38 GMT 34.858036 -84.010101 9,725 0 295 0
2020-07-17 11:55:34 GMT 34.852295 -84.010155 9,725 0 295 0
2020-07-17 11:55:27 GMT 34.842861 -84.010330 9,725 0 295 0
2020-07-17 11:55:15 GMT 34.826614 -84.010567 9,725 0 295 0
2020-07-17 11:55:11 GMT 34.819794 -84.010658 9,725 0 295 0
2020-07-17 11:55:08 GMT 34.812698 -84.010773 9,725 0 295 0
2020-07-17 11:54:58 GMT 34.803246 -84.010902 9,725 0 296 0
2020-07-17 11:54:52 GMT 34.793060 -84.011108 9,725 0 296 0
2020-07-17 11:54:41 GMT 34.778870 -84.011330 9,725 0 297 0
2020-07-17 11:54:29 GMT 34.762371 -84.011536 9,725 0 297 0
2020-07-17 11:54:20 GMT 34.750313 -84.011703 9,725 0 297 0
2020-07-17 11:54:17 GMT 34.746185 -84.011780 9,725 0 297 0
2020-07-17 11:54:07 GMT 34.732590 -84.012001 9,725 0 296 0
2020-07-17 11:53:54 GMT 34.715260 -84.012222 9,725 0 296 0
2020-07-17 11:53:45 GMT 34.702877 -84.012398 9,750 0 297 0
2020-07-17 11:53:35 GMT 34.689514 -84.012619 9,750 0 298 0
2020-07-17 11:53:32 GMT 34.684113 -84.012672 9,725 0 299 0
2020-07-17 11:53:25 GMT 34.675232 -84.012787 9,725 0 300 0
2020-07-17 11:53:11 GMT 34.653393 -84.013084 9,725 0 301 0
2020-07-17 11:53:04 GMT 34.646393 -84.013184 9,725 0 302 0
2020-07-17 11:53:00 GMT 34.639801 -84.013237 9,725 0 302 0
2020-07-17 11:52:54 GMT 34.632538 -84.013306 9,725 0 302 0
2020-07-17 11:52:44 GMT 34.617737 -84.013458 9,750 0 301 0
2020-07-17 11:52:34 GMT 34.603722 -84.013596 9,725 0 299 0
2020-07-17 11:52:29 GMT 34.597485 -84.013657 9,725 0 299 0
2020-07-17 11:52:23 GMT 34.589035 -84.013741 9,725 0 299 0
2020-07-17 11:52:19 GMT 34.582355 -84.013763 9,750 0 299 0
2020-07-17 11:52:13 GMT 34.574627 -84.013885 9,725 0 299 0
2020-07-17 11:52:06 GMT 34.564941 -84.013992 9,725 0 298 0
2020-07-17 11:52:03 GMT 34.560516 -84.014023 9,725 0 298 0
2020-07-17 11:51:57 GMT 34.552235 -84.014114 9,725 0 298 0
2020-07-17 11:51:52 GMT 34.545998 -84.014221 9,725 0 298 0
2020-07-17 11:51:48 GMT 34.540085 -84.014282 9,725 0 297 0
2020-07-17 11:51:40 GMT 34.526165 -84.014565 9,725 1 297 -64
2020-07-17 11:51:35 GMT 34.522018 -84.014641 9,725 1 297 0
2020-07-17 11:51:28 GMT 34.511032 -84.014915 9,725 1 297 0
2020-07-17 11:51:12 GMT 34.490524 -84.015480 9,750 1 297 -64
2020-07-17 11:51:09 GMT 34.486130 -84.015541 9,750 1 297 -192
2020-07-17 11:50:57 GMT 34.468021 -84.015945 9,875 0 300 -768
2020-07-17 11:50:46 GMT 34.453823 -84.016113 10,025 0 302 -768
2020-07-17 11:50:39 GMT 34.445259 -84.016228 10,200 0 305 -768
2020-07-17 11:50:36 GMT 34.439667 -84.016266 10,150 0 304 -768
2020-07-17 11:50:29 GMT 34.431152 -84.016373 10,300 0 308 -768
2020-07-17 11:50:23 GMT 34.421722 -84.016434 10,300 0 311 -832
2020-07-17 11:50:19 GMT 34.416813 -84.016457 10,350 0 313 -832
2020-07-17 11:50:14 GMT 34.408527 -84.016571 10,425 0 317 -832
2020-07-17 11:50:09 GMT 34.401264 -84.016624 10,500 0 321 -832
2020-07-17 11:50:05 GMT 34.396225 -84.016655 10,600 0 325 -832
2020-07-17 11:50:02 GMT 34.389580 -84.016747 10,600 0 325 -832
2020-07-17 11:49:58 GMT 34.385513 -84.016769 10,650 0 329 -832
2020-07-17 11:49:55 GMT 34.380596 -84.016800 10,675 0 332 -832
2020-07-17 11:49:52 GMT 34.375992 -84.016876 10,725 0 333 -896
2020-07-17 11:49:48 GMT 34.369629 -84.016937 10,800 0 336 -832
2020-07-17 11:49:44 GMT 34.361984 -84.017044 10,850 0 336 -832
2020-07-17 11:49:38 GMT 34.354527 -84.017082 10,925 0 337 -768
2020-07-17 11:49:33 GMT 34.346237 -84.017220 11,000 0 338 -832
2020-07-17 11:49:28 GMT 34.338226 -84.017273 11,075 0 338 -832
2020-07-17 11:49:23 GMT 34.329807 -84.017372 11,150 0 338 -832
2020-07-17 11:49:18 GMT 34.323532 -84.017387 11,150 0 337 -832
2020-07-17 11:49:14 GMT 34.311790 -84.017487 11,300 0 337 -768
2020-07-17 11:49:07 GMT 34.305367 -84.017548 11,350 0 337 -768
2020-07-17 11:49:03 GMT 34.299595 -84.017548 11,400 0 337 -768
2020-07-17 11:49:00 GMT 34.294430 -84.017601 11,450 0 337 -768
2020-07-17 11:48:54 GMT 34.282417 -84.017654 11,550 0 337 -832
2020-07-17 11:48:51 GMT 34.279484 -84.017654 11,575 0 337 -832
2020-07-17 11:48:46 GMT 34.273544 -84.017723 11,625 0 337 -640
2020-07-17 11:48:43 GMT 34.266682 -84.017776 11,675 0 337 -576
2020-07-17 11:48:36 GMT 34.256836 -84.017776 11,700 0 337 -128
2020-07-17 11:48:30 GMT 34.246719 -84.017830 11,700 0 337 0
2020-07-17 11:48:25 GMT 34.240906 -84.017891 11,700 0 337 0
2020-07-17 11:48:22 GMT 34.233261 -84.017891 11,700 0 337 0
2020-07-17 11:48:14 GMT 34.223156 -84.017883 11,700 0 337 0
2020-07-17 11:48:10 GMT 34.215958 -84.017891 11,700 0 337 -64
2020-07-17 11:48:04 GMT 34.196621 -84.017883 11,700 0 335 0
2020-07-17 11:47:58 GMT 34.196621 -84.017883 11,700 0 336 0
2020-07-17 11:47:54 GMT 34.192108 -84.017944 11,700 0 336 0
2020-07-17 11:47:51 GMT 34.183868 -84.017944 11,700 0 335 0
2020-07-17 11:47:48 GMT 34.182632 -84.017944 11,700 0 336 0
2020-07-17 11:47:42 GMT 34.172653 -84.017944 11,700 0 335 0
2020-07-17 11:47:38 GMT 34.163662 -84.017944 11,725 0 336 0
2020-07-17 11:47:30 GMT 34.153095 -84.017883 11,725 0 336 0
2020-07-17 11:47:26 GMT 34.146835 -84.017891 11,700 0 336 0
2020-07-17 11:47:20 GMT 34.137222 -84.017830 11,700 0 336 0
2020-07-17 11:47:17 GMT 34.133915 -84.017830 11,700 0 336 0
2020-07-17 11:47:09 GMT 34.121765 -84.017776 11,700 0 337 0
2020-07-17 11:47:00 GMT 34.105240 -84.017715 11,700 0 337 0
2020-07-17 11:46:56 GMT 34.101982 -84.017715 11,700 0 337 0
2020-07-17 11:46:47 GMT 34.085594 -84.017654 11,700 0 337 64
2020-07-17 11:46:38 GMT 34.072952 -84.017609 11,700 0 337 0
2020-07-17 11:46:29 GMT 34.057068 -84.017555 11,725 0 336 0
2020-07-17 11:46:22 GMT 34.046173 -84.017494 11,725 0 335 0
2020-07-17 11:46:17 GMT 34.039646 -84.017487 11,725 0 334 0
2020-07-17 11:46:14 GMT 34.034409 -84.017441 11,725 0 334 0
2020-07-17 11:46:07 GMT 34.024063 -84.017441 11,700 0 334 0
2020-07-17 11:46:03 GMT 34.017242 -84.017441 11,700 0 334 0
2020-07-17 11:45:55 GMT 34.006210 -84.017494 11,700 0 335 0
2020-07-17 11:45:52 GMT 34.000443 -84.017494 11,700 0 336 0
2020-07-17 11:45:46 GMT 33.992065 -84.017555 11,700 0 336 -64
2020-07-17 11:45:40 GMT 33.981785 -84.017601 11,700 0 336 0
2020-07-17 11:45:35 GMT 33.973404 -84.017715 11,700 0 336 0
2020-07-17 11:45:32 GMT 33.970413 -84.017776 11,700 0 336 64
2020-07-17 11:45:29 GMT 33.965286 -84.017830 11,700 1 336 64
2020-07-17 11:45:25 GMT 33.959995 -84.017944 11,700 1 336 0
2020-07-17 11:45:18 GMT 33.950043 -84.018227 11,700 1 336 -64
2020-07-17 11:45:15 GMT 33.944263 -84.018456 11,700 1 336 -64
2020-07-17 11:45:09 GMT 33.933060 -84.018898 11,725 1 336 0
2020-07-17 11:45:06 GMT 33.928062 -84.019089 11,725 2 335 0
2020-07-17 11:44:58 GMT 33.915958 -84.019608 11,700 1 335 64
2020-07-17 11:44:54 GMT 33.911316 -84.019791 11,700 1 335 0
2020-07-17 11:44:46 GMT 33.899944 -84.020233 11,700 2 335 -64
2020-07-17 11:44:42 GMT 33.892033 -84.020576 11,700 1 336 -64
2020-07-17 11:44:36 GMT 33.881927 -84.020973 11,725 1 336 0
2020-07-17 11:44:30 GMT 33.874924 -84.021248 11,725 2 336 0
2020-07-17 11:44:24 GMT 33.864658 -84.021721 11,725 2 336 0
2020-07-17 11:44:14 GMT 33.848133 -84.022346 11,700 1 337 0
2020-07-17 11:44:10 GMT 33.840637 -84.022575 11,700 1 337 0
2020-07-17 11:44:03 GMT 33.830814 -84.022751 11,700 0 337 64
2020-07-17 11:43:53 GMT 33.814545 -84.022598 11,700 0 338 -64
2020-07-17 11:43:41 GMT 33.796509 -84.022766 11,725 0 338 0
2020-07-17 11:43:31 GMT 33.780724 -84.022865 11,700 0 337 0
2020-07-17 11:43:20 GMT 33.763641 -84.022980 11,700 0 338 -64
2020-07-17 11:43:08 GMT 33.746601 -84.023094 11,700 0 338 64
2020-07-17 11:42:59 GMT 33.729996 -84.023270 11,700 0 338 0
2020-07-17 11:42:47 GMT 33.711548 -84.023499 11,700 0 338 0
2020-07-17 11:42:37 GMT 33.695862 -84.023666 11,700 0 338 -64
2020-07-17 11:42:26 GMT 33.678497 -84.023895 11,725 0 337 0
2020-07-17 11:42:15 GMT 33.662247 -84.024109 11,725 0 337 0
2020-07-17 11:42:03 GMT 33.645218 -84.024338 11,725 0 337 -64
2020-07-17 11:41:53 GMT 33.616791 -84.024673 11,725 0 337 0
2020-07-17 11:41:40 GMT 33.608368 -84.024780 11,700 0 337 0
2020-07-17 11:41:31 GMT 33.594315 -84.024948 11,700 0 339 0
2020-07-17 11:41:14 GMT 33.568817 -84.025284 11,700 0 340 0
2020-07-17 11:41:09 GMT 33.559387 -84.025398 11,700 0 339 0
2020-07-17 11:41:00 GMT 33.544426 -84.025558 11,725 0 339 -128
2020-07-17 11:40:49 GMT 33.527340 -84.025734 11,775 0 337 -320
2020-07-17 11:40:38 GMT 33.510544 -84.025742 11,875 0 337 -1152
2020-07-17 11:40:34 GMT 33.504902 -84.025681 11,950 0 339 -1344
2020-07-17 11:40:27 GMT 33.493378 -84.025581 12,100 0 342 -1280
2020-07-17 11:40:17 GMT 33.472412 -84.025307 12,350 0 350 -1088
2020-07-17 11:40:06 GMT 33.458359 -84.025253 12,575 0 354 -1792
2020-07-17 11:39:57 GMT 33.446526 -84.025345 12,725 0 356 -1280
2020-07-17 11:39:54 GMT 33.439545 -84.025528 12,825 1 360 -1024
2020-07-17 11:39:48 GMT 33.430046 -84.025963 12,975 3 362 -1728
2020-07-17 11:39:44 GMT 33.422653 -84.026459 13,100 3 362 -2048
2020-07-17 11:39:39 GMT 33.416267 -84.026917 13,250 3 363 -1984
2020-07-17 11:39:32 GMT 33.389557 -84.028877 13,700 3 367 -1664
2020-07-17 11:39:21 GMT 33.385494 -84.029213 13,775 3 368 -1792
2020-07-17 11:39:11 GMT 33.366348 -84.030579 14,150 3 370 -2176
2020-07-17 11:39:08 GMT 33.362915 -84.030853 14,225 3 370 -2304
2020-07-17 11:39:00 GMT 33.347649 -84.032013 14,575 3 370 -2240
2020-07-17 11:38:56 GMT 33.342865 -84.032394 14,675 3 370 -2112
2020-07-17 11:38:50 GMT 33.329773 -84.033379 14,925 3 372 -1984
2020-07-17 11:38:46 GMT 33.324463 -84.033768 15,025 3 372 -1984
2020-07-17 11:38:38 GMT 33.309242 -84.034927 15,300 3 374 -2048
2020-07-17 11:38:35 GMT 33.306656 -84.035141 15,350 3 374 -2112
2020-07-17 11:38:28 GMT 33.291695 -84.036217 15,675 3 375 -2048
2020-07-17 11:38:24 GMT 33.286652 -84.036621 15,775 3 376 -1984
2020-07-17 11:38:17 GMT 33.273056 -84.037613 16,050 3 377 -2112
2020-07-17 11:38:11 GMT 33.263622 -84.038292 16,250 3 377 -2304
2020-07-17 11:38:05 GMT 33.253647 -84.039040 17,475 3 383 -1664
2020-07-17 11:37:55 GMT 33.235317 -84.040482 16,875 3 377 -2368
2020-07-17 11:37:44 GMT 33.215721 -84.041878 17,275 3 379 -1856
2020-07-17 11:37:32 GMT 33.194504 -84.043381 17,600 3 384 -1728
2020-07-17 11:37:23 GMT 33.178200 -84.044510 17,900 3 387 -1920
2020-07-17 11:37:11 GMT 33.158554 -84.045975 18,225 3 391 -1984
2020-07-17 11:36:59 GMT 33.133850 -84.047829 18,725 3 393 -2304
2020-07-17 11:36:51 GMT 33.119080 -84.048996 19,025 3 395 -2048
2020-07-17 11:36:40 GMT 33.099339 -84.050400 19,350 3 400 -1856
2020-07-17 11:36:29 GMT 33.079514 -84.051834 19,775 3 401 -2752
2020-07-17 11:36:17 GMT 33.059601 -84.053268 20,300 3 403 -3008
2020-07-17 11:36:07 GMT 33.037937 -84.054825 20,900 3 403 -3136
2020-07-17 11:35:56 GMT 33.018105 -84.056282 21,400 3 405 -2752
2020-07-17 11:35:50 GMT 33.005859 -84.057220 21,700 3 407 -2624
2020-07-17 11:35:46 GMT 32.998489 -84.057770 21,850 3 410 -2304
2020-07-17 11:35:35 GMT 32.977844 -84.059250 22,200 3 417 -1984
2020-07-17 11:35:23 GMT 32.957062 -84.060844 22,650 3 422 -2624
2020-07-17 11:35:14 GMT 32.936268 -84.062393 23,150 3 425 -3136
2020-07-17 11:34:42 GMT 32.872631 -84.066933 24,900 3 431 -2880
2020-07-17 11:34:34 GMT 32.859650 -84.067932 25,225 3 433 -2944
2020-07-17 11:34:31 GMT 32.851593 -84.068535 25,425 3 435 -3008
2020-07-17 11:34:25 GMT 32.839874 -84.069412 25,725 3 437 -3072
2020-07-17 11:34:19 GMT 32.829754 -84.070183 26,000 3 439 -3392
2020-07-17 11:34:15 GMT 32.821842 -84.070747 26,225 3 439 -3648
2020-07-17 11:33:42 GMT 32.751801 -84.075844 28,650 3 441 -4032
2020-07-17 11:33:37 GMT 32.741539 -84.076576 29,000 3 443 -4032
2020-07-17 11:33:26 GMT 32.718567 -84.078316 29,775 3 445 -4288
2020-07-17 11:33:15 GMT 32.695869 -84.079994 30,625 3 444 -4800
2020-07-17 11:33:02 GMT 32.671570 -84.081841 31,475 3 446 -3904
2020-07-17 11:32:52 GMT 32.650818 -84.083366 32,100 3 450 -3840
2020-07-17 11:32:43 GMT 32.629486 -84.084961 32,775 3 453 -3904
2020-07-17 11:32:31 GMT 32.590244 -84.087898 34,050 3 454 -4544
2020-07-17 11:32:17 GMT 32.577393 -84.088860 34,550 3 453 -4928
2020-07-17 11:32:14 GMT 32.569656 -84.089462 34,850 3 451 -5056
2020-07-17 11:32:09 GMT 32.561142 -84.090073 35,200 3 443 -5056
2020-07-17 11:31:44 GMT 32.510468 -84.093529 37,075 3 444 -2816
2020-07-17 11:31:36 GMT 32.478012 -84.095840 37,825 3 451 -1344
2020-07-17 11:31:29 GMT 32.478012 -84.095840 37,650 3 451 -1920
2020-07-17 11:31:23 GMT 32.465672 -84.096695 37,825 3 451 -1344
2020-07-17 11:31:20 GMT 32.456085 -84.097374 37,900 3 451 -768
2020-07-17 11:31:09 GMT 32.434158 -84.098862 37,975 3 451 -64
2020-07-17 11:30:53 GMT 32.403488 -84.100891 37,975 3 451 0
2020-07-17 11:30:42 GMT 32.380108 -84.102470 37,975 3 451 0
2020-07-17 11:30:24 GMT 32.340912 -84.105179 38,000 3 450 -64
2020-07-17 11:30:13 GMT 32.319214 -84.106766 38,000 3 450 64
2020-07-17 11:29:50 GMT 32.256836 -84.112564 38,000 2 451 64
2020-07-17 11:29:35 GMT 32.238449 -84.113457 38,000 0 452 0
2020-07-17 11:29:15 GMT 32.195759 -84.107239 38,000 350 455 0
2020-07-17 11:29:12 GMT 32.193283 -84.106712 38,025 350 455 0
2020-07-17 11:29:01 GMT 32.170670 -84.101631 38,000 350 456 0
2020-07-17 11:28:48 GMT 32.140182 -84.094742 38,000 350 456 0
2020-07-17 11:28:40 GMT 32.123791 -84.091034 38,000 350 456 0
2020-07-17 11:28:30 GMT 32.102646 -84.086281 38,000 350 455 64
2020-07-17 11:28:19 GMT 32.080215 -84.081223 38,000 350 457 64
2020-07-17 11:28:05 GMT 32.049633 -84.074448 38,000 350 456 -64
2020-07-17 11:27:56 GMT 32.033432 -84.070801 38,000 350 456 0
2020-07-17 11:27:47 GMT 32.016815 -84.067101 38,000 350 456 -64
2020-07-17 11:27:43 GMT 32.008713 -84.065308 38,000 350 456 -64
2020-07-17 11:27:37 GMT 31.993351 -84.061943 38,000 350 456 -128
2020-07-17 11:27:27 GMT 31.974264 -84.057739 38,025 350 455 -64
2020-07-17 11:27:23 GMT 31.963652 -84.055389 38,025 350 455 0
2020-07-17 11:27:06 GMT 31.930458 -84.047989 38,025 350 456 0
2020-07-17 11:26:57 GMT 31.911163 -84.043655 38,025 350 457 0
2020-07-17 11:26:45 GMT 31.888046 -84.038490 38,025 350 456 0
2020-07-17 11:26:18 GMT 31.830187 -84.025627 38,025 350 458 0
2020-07-17 11:26:08 GMT 31.807709 -84.020638 38,025 350 457 0
2020-07-17 11:26:01 GMT 31.795225 -84.017830 38,025 350 457 64
2020-07-17 11:25:37 GMT 31.743225 -84.006081 38,000 350 457 0
2020-07-17 11:25:14 GMT 31.698303 -83.995918 38,000 350 457 0
2020-07-17 11:25:11 GMT 31.692064 -83.994492 38,000 350 457 -64
2020-07-17 11:25:02 GMT 31.673309 -83.990265 38,025 350 457 -64
2020-07-17 11:24:53 GMT 31.651703 -83.985359 38,025 350 457 0
2020-07-17 11:24:42 GMT 31.620329 -83.978394 38,025 350 456 0
2020-07-17 11:24:30 GMT 31.605337 -83.975098 38,025 350 456 0
2020-07-17 11:24:10 GMT 31.565414 -83.966728 38,025 350 456 0
2020-07-17 11:24:01 GMT 31.546543 -83.962410 38,025 349 456 64
2020-07-17 11:23:55 GMT 31.532112 -83.958565 38,000 344 458 0
2020-07-17 11:23:42 GMT 31.508184 -83.951096 38,000 344 458 0
2020-07-17 11:23:34 GMT 31.489935 -83.944389 38,000 342 458 0
2020-07-17 11:23:00 GMT 31.422527 -83.918190 37,975 342 457 0
2020-07-17 11:22:51 GMT 31.402836 -83.910553 37,975 342 457 0
2020-07-17 11:22:37 GMT 31.377745 -83.900772 37,975 342 456 64
2020-07-17 11:22:29 GMT 31.358936 -83.893471 37,975 342 455 0
2020-07-17 11:22:22 GMT 31.346508 -83.888634 37,975 342 455 -64
2020-07-17 11:21:50 GMT 31.281055 -83.863037 37,975 342 454 0
2020-07-17 11:21:40 GMT 31.263107 -83.856056 37,975 342 454 0
2020-07-17 11:21:37 GMT 31.255127 -83.852982 37,975 342 454 -64
2020-07-17 11:21:26 GMT 31.234783 -83.845131 37,975 342 454 0
2020-07-17 11:21:08 GMT 31.197075 -83.830574 37,975 342 454 0
2020-07-17 11:21:05 GMT 31.192703 -83.828857 37,975 342 454 0
2020-07-17 11:20:56 GMT 31.172745 -83.821106 37,975 342 454 0
2020-07-17 11:20:31 GMT 31.125687 -83.802849 38,000 342 454 -64
2020-07-17 11:20:23 GMT 31.109299 -83.796494 38,000 342 454 0
2020-07-17 11:20:13 GMT 31.089340 -83.788849 38,000 342 454 0
2020-07-17 11:20:04 GMT 31.069565 -83.781197 38,000 342 455 -64
2020-07-17 11:19:52 GMT 31.046997 -83.772530 38,000 342 455 64
2020-07-17 11:19:42 GMT 31.024134 -83.763718 38,000 342 456 0
2020-07-17 11:19:31 GMT 31.005890 -83.756645 38,000 342 456 -64
2020-07-17 11:19:22 GMT 30.986053 -83.749001 38,000 342 456 0
2020-07-17 11:19:08 GMT 30.959612 -83.738724 38,000 342 456 0
2020-07-17 11:19:00 GMT 30.943132 -83.732407 38,000 342 457 0
2020-07-17 11:18:51 GMT 30.922852 -83.724602 38,000 342 456 0
2020-07-17 11:18:40 GMT 30.901749 -83.716522 38,000 342 456 0
2020-07-17 11:18:30 GMT 30.881287 -83.708710 38,000 342 456 -64
2020-07-17 11:18:21 GMT 30.862877 -83.701645 38,000 342 456 0
2020-07-17 11:18:18 GMT 30.857666 -83.699661 38,000 342 455 64
2020-07-17 11:18:13 GMT 30.847235 -83.695663 38,000 342 455 64
2020-07-17 11:18:07 GMT 30.837460 -83.691925 38,000 342 454 0
2020-07-17 11:18:02 GMT 30.827499 -83.688087 38,000 342 454 0
2020-07-17 11:17:58 GMT 30.817703 -83.684319 38,000 342 453 0
2020-07-17 11:17:53 GMT 30.806168 -83.679848 38,000 342 453 0
2020-07-17 11:17:47 GMT 30.797005 -83.676270 38,000 342 452 -64
2020-07-17 11:17:38 GMT 30.776150 -83.668251 38,025 342 451 0
2020-07-17 11:17:32 GMT 30.764420 -83.663742 38,025 342 451 0
2020-07-17 11:17:26 GMT 30.754923 -83.660118 38,000 342 451 64
2020-07-17 11:17:21 GMT 30.743563 -83.655777 38,000 342 452 64
2020-07-17 11:17:17 GMT 30.735836 -83.652870 37,975 342 452 64
2020-07-17 11:17:04 GMT 30.711868 -83.643761 37,950 342 453 512
2020-07-17 11:17:01 GMT 30.702530 -83.640205 37,925 342 452 896
2020-07-17 11:16:48 GMT 30.678576 -83.631058 37,675 342 454 1472
2020-07-17 11:16:42 GMT 30.666380 -83.626389 37,525 342 455 1600
2020-07-17 11:16:38 GMT 30.657581 -83.623039 37,400 342 456 1600
2020-07-17 11:16:35 GMT 30.652130 -83.620926 37,325 342 458 1536
2020-07-17 11:16:25 GMT 30.630524 -83.612686 37,075 342 460 1152
2020-07-17 11:16:16 GMT 30.612717 -83.605850 36,950 342 460 896
2020-07-17 11:16:13 GMT 30.608871 -83.604340 36,900 342 460 896
2020-07-17 11:16:07 GMT 30.597111 -83.599861 36,825 342 460 832
2020-07-17 11:16:02 GMT 30.584793 -83.595078 36,750 342 460 768
2020-07-17 11:15:57 GMT 30.574299 -83.591072 36,675 342 459 832
2020-07-17 11:15:52 GMT 30.566805 -83.588158 36,625 342 459 896
2020-07-17 11:15:47 GMT 30.554281 -83.583382 36,525 342 459 1024
2020-07-17 11:15:43 GMT 30.546661 -83.580429 36,450 342 458 1088
2020-07-17 11:15:36 GMT 30.532516 -83.575043 36,325 342 459 1216
2020-07-17 11:15:31 GMT 30.524023 -83.571793 36,250 342 459 1280
2020-07-17 11:15:21 GMT 30.502029 -83.563416 36,075 342 458 640
2020-07-17 11:15:14 GMT 30.489944 -83.558830 36,000 342 458 320
2020-07-17 11:15:04 GMT 30.467148 -83.550163 36,000 342 458 0
2020-07-17 11:14:56 GMT 30.449387 -83.543434 36,000 342 457 -128
2020-07-17 11:14:51 GMT 30.441147 -83.540306 36,000 342 457 -64
2020-07-17 11:14:40 GMT 30.420410 -83.532501 36,000 342 456 0
2020-07-17 11:14:28 GMT 30.394653 -83.522682 36,000 342 457 64
2020-07-17 11:14:18 GMT 30.377518 -83.516182 36,000 342 458 -64
2020-07-17 11:14:03 GMT 30.345867 -83.504059 36,000 342 458 0
2020-07-17 11:13:59 GMT 30.336182 -83.500404 36,000 342 458 0
2020-07-17 11:13:36 GMT 30.290470 -83.482964 36,000 342 457 -64
2020-07-17 11:13:30 GMT 30.277390 -83.477966 36,000 342 457 0
2020-07-17 11:13:26 GMT 30.271755 -83.475822 36,000 342 456 0
2020-07-17 11:13:22 GMT 30.260862 -83.471756 36,000 342 456 0
2020-07-17 11:13:16 GMT 30.250809 -83.467926 36,000 342 456 64
2020-07-17 11:13:11 GMT 30.241173 -83.464233 36,000 342 456 0
2020-07-17 11:13:02 GMT 30.223667 -83.457642 36,000 342 456 0
2020-07-17 11:12:59 GMT 30.215652 -83.454575 36,000 342 455 0
2020-07-17 11:12:54 GMT 30.207413 -83.451447 36,000 342 456 -64
2020-07-17 11:12:49 GMT 30.197367 -83.447647 36,000 342 455 0
2020-07-17 11:12:22 GMT 30.142456 -83.426949 36,000 342 455 0
2020-07-17 11:12:08 GMT 30.114363 -83.416336 36,000 342 455 0
2020-07-17 11:12:03 GMT 30.104168 -83.412491 36,000 342 455 0
2020-07-17 11:11:48 GMT 30.072466 -83.400513 36,000 342 455 0
2020-07-17 11:11:39 GMT 30.056871 -83.394638 36,000 342 454 64
2020-07-17 11:11:36 GMT 30.051052 -83.392441 36,000 342 454 0
2020-07-17 11:11:27 GMT 30.029434 -83.384239 36,000 342 454 0
2020-07-17 11:11:11 GMT 29.999817 -83.373039 36,000 342 454 0
2020-07-17 11:11:00 GMT 29.980225 -83.365662 36,000 342 453 0
2020-07-17 11:10:48 GMT 29.952314 -83.355141 36,000 342 451 64
2020-07-17 11:10:39 GMT 29.938442 -83.349869 36,000 342 450 -64
2020-07-17 11:10:28 GMT 29.916275 -83.341530 36,000 342 449 -64
2020-07-17 11:09:31 GMT 29.802464 -83.298882 35,425 342 454 1024
2020-07-17 11:09:28 GMT 29.796692 -83.296722 35,575 342 452 1536
2020-07-17 11:09:17 GMT 29.776199 -83.288994 35,300 342 453 1536
2020-07-17 11:09:07 GMT 29.754364 -83.280807 35,050 342 455 1280
2020-07-17 11:08:55 GMT 29.731146 -83.272057 34,825 342 454 1024
2020-07-17 11:08:46 GMT 29.703918 -83.261841 34,600 342 454 1024
2020-07-17 11:08:36 GMT 29.686340 -83.255241 34,425 342 453 1152
2020-07-17 11:08:28 GMT 29.676132 -83.251381 34,325 342 453 1216
2020-07-17 11:08:17 GMT 29.652006 -83.242332 34,075 342 452 1280
2020-07-17 11:08:10 GMT 29.641251 -83.238281 33,950 342 453 1600
2020-07-17 11:08:05 GMT 29.632082 -83.234901 33,825 342 453 1536
2020-07-17 11:07:58 GMT 29.617493 -83.229408 33,625 342 453 1664
2020-07-17 11:07:52 GMT 29.605087 -83.224815 33,450 342 454 1920
2020-07-17 11:07:42 GMT 29.585670 -83.217560 32,575 342 458 1728
2020-07-17 11:07:23 GMT 29.544609 -83.202263 32,850 342 459 1344
2020-07-17 11:07:19 GMT 29.538574 -83.199989 32,500 342 459 1344
2020-07-17 11:07:12 GMT 29.502899 -83.186752 32,325 342 459 1536
2020-07-17 11:07:01 GMT 29.502899 -83.186752 32,000 342 461 2304
2020-07-17 11:06:51 GMT 29.482929 -83.179268 31,625 342 464 2176
2020-07-17 11:06:41 GMT 29.439972 -83.163284 31,100 342 467 1152
2020-07-17 11:06:28 GMT 29.435633 -83.161659 31,075 342 465 832
2020-07-17 11:06:19 GMT 29.414356 -83.153740 30,950 342 462 896
2020-07-17 11:06:07 GMT 29.385077 -83.142807 30,775 342 462 1216
2020-07-17 11:05:59 GMT 29.376743 -83.139687 30,600 342 460 1152
2020-07-17 11:05:49 GMT 29.355515 -83.131767 30,400 342 458 1216
2020-07-17 11:05:39 GMT 29.334475 -83.123962 30,125 342 458 1728
2020-07-17 11:05:31 GMT 29.317902 -83.117767 29,000 342 454 1344
2020-07-17 11:05:28 GMT 29.313858 -83.116272 29,875 342 459 1408
2020-07-17 11:05:17 GMT 29.291016 -83.107819 29,650 342 457 1216
2020-07-17 11:05:08 GMT 29.271908 -83.100746 29,400 343 456 1600
2020-07-17 11:05:00 GMT 29.255800 -83.094772 29,175 342 455 1472
2020-07-17 11:04:57 GMT 29.250401 -83.092773 29,175 342 455 1472
2020-07-17 11:04:51 GMT 29.238949 -83.088524 29,000 342 454 1344
2020-07-17 11:04:47 GMT 29.230335 -83.085342 28,900 342 454 1216
2020-07-17 11:04:40 GMT 29.215160 -83.079689 28,750 342 452 1152
2020-07-17 11:04:36 GMT 29.209167 -83.077507 28,700 342 451 1152
2020-07-17 11:04:26 GMT 29.188980 -83.069954 28,500 342 449 1216
2020-07-17 11:04:16 GMT 29.168423 -83.062347 28,275 342 447 1408
2020-07-17 11:04:08 GMT 29.152687 -83.056480 28,075 342 445 1536
2020-07-17 11:04:05 GMT 29.147781 -83.054688 28,025 342 444 1600
2020-07-17 11:04:00 GMT 29.135464 -83.050072 27,825 342 444 1856
2020-07-17 11:03:55 GMT 29.127594 -83.047188 27,725 342 444 1856
2020-07-17 11:03:48 GMT 29.114468 -83.042313 27,500 342 444 1856
2020-07-17 11:03:44 GMT 29.106833 -83.039459 27,425 342 444 1792
2020-07-17 11:03:36 GMT 29.088400 -83.032623 27,150 343 443 1408
2020-07-17 11:03:33 GMT 29.085466 -83.031548 27,100 343 443 1408
2020-07-17 11:03:23 GMT 29.065540 -83.024223 26,900 343 441 1088
2020-07-17 11:03:18 GMT 29.055267 -83.020409 26,775 342 439 1408
2020-07-17 11:03:13 GMT 29.045792 -83.016869 26,650 342 438 1664
2020-07-17 11:03:03 GMT 29.026245 -83.009682 26,200 342 439 2176
2020-07-17 11:02:55 GMT 29.008392 -83.003082 26,025 342 439 1728
2020-07-17 11:02:47 GMT 28.995438 -82.998276 25,850 343 438 1280
2020-07-17 11:02:42 GMT 28.985367 -82.994576 25,750 343 437 1280
2020-07-17 11:02:36 GMT 28.973648 -82.990250 25,600 343 435 1600
2020-07-17 11:02:32 GMT 28.965775 -82.987396 25,500 343 435 1600
2020-07-17 11:02:26 GMT 28.954468 -82.983238 25,350 343 434 1600
2020-07-17 11:02:21 GMT 28.945110 -82.979790 25,225 343 432 1600
2020-07-17 11:02:16 GMT 28.934418 -82.975830 25,050 343 431 1856
2020-07-17 11:02:11 GMT 28.925629 -82.972603 24,900 343 431 1984
2020-07-17 11:02:06 GMT 28.915363 -82.968803 24,725 343 431 1792
2020-07-17 11:02:00 GMT 28.905634 -82.965248 24,625 342 432 1664
2020-07-17 11:01:55 GMT 28.894602 -82.961159 24,425 343 431 1920
2020-07-17 11:01:49 GMT 28.884705 -82.957497 24,250 343 431 2048
2020-07-17 11:01:45 GMT 28.873886 -82.953506 24,050 343 431 1984
2020-07-17 11:01:42 GMT 28.868765 -82.951622 23,975 343 431 1856
2020-07-17 11:01:39 GMT 28.866302 -82.950684 23,925 343 431 1728
2020-07-17 11:01:35 GMT 28.855637 -82.946777 23,775 342 430 1536
2020-07-17 11:01:31 GMT 28.846931 -82.943542 23,675 342 429 1280
2020-07-17 11:01:27 GMT 28.839386 -82.940758 23,600 342 426 1152
2020-07-17 11:01:23 GMT 28.834688 -82.939018 23,550 342 425 1088
2020-07-17 11:01:19 GMT 28.826843 -82.936111 23,500 343 424 1024
2020-07-17 11:01:16 GMT 28.816589 -82.932304 23,350 343 421 1408
2020-07-17 11:01:10 GMT 28.809311 -82.929665 23,250 342 420 1728
2020-07-17 11:01:06 GMT 28.801712 -82.926865 23,125 342 420 1856
2020-07-17 11:00:58 GMT 28.788603 -82.922005 22,925 343 418 1792
2020-07-17 11:00:54 GMT 28.781013 -82.919205 22,800 343 418 1856
2020-07-17 11:00:47 GMT 28.768679 -82.914680 22,600 342 417 1920
2020-07-17 11:00:44 GMT 28.761658 -82.912125 22,450 342 417 2048
2020-07-17 11:00:38 GMT 28.751360 -82.908325 21,800 342 417 1984
2020-07-17 11:00:35 GMT 28.743256 -82.905312 22,100 342 417 1856
2020-07-17 11:00:26 GMT 28.730026 -82.900452 21,900 343 416 1600
2020-07-17 11:00:23 GMT 28.724546 -82.898468 21,825 343 415 1472
2020-07-17 11:00:17 GMT 28.711212 -82.893539 21,675 343 411 1152
2020-07-17 11:00:14 GMT 28.706177 -82.891685 21,625 343 408 1216
2020-07-17 11:00:06 GMT 28.693176 -82.886932 21,450 343 406 1536
2020-07-17 11:00:03 GMT 28.686747 -82.884575 21,350 343 405 1984
2020-07-17 10:59:57 GMT 28.675108 -82.880318 21,100 343 405 2624
2020-07-17 10:59:53 GMT 28.668125 -82.877739 20,950 343 405 2432
2020-07-17 10:59:49 GMT 28.660995 -82.875099 20,800 343 405 1984
2020-07-17 10:59:44 GMT 28.654724 -82.872833 20,725 343 405 1792
2020-07-17 10:59:39 GMT 28.645639 -82.869499 20,600 343 403 1536
2020-07-17 10:59:35 GMT 28.637421 -82.866547 20,450 343 401 1472
2020-07-17 10:59:32 GMT 28.631441 -82.864326 20,350 343 400 1664
2020-07-17 10:59:28 GMT 28.623322 -82.861366 20,275 343 399 1792
2020-07-17 10:59:25 GMT 28.618927 -82.859734 20,125 343 398 2368
2020-07-17 10:59:20 GMT 28.611193 -82.856895 19,875 343 398 2304
2020-07-17 10:59:17 GMT 28.606071 -82.855011 19,850 343 398 2240
2020-07-17 10:59:14 GMT 28.600479 -82.852974 19,725 343 398 2048
2020-07-17 10:59:10 GMT 28.591873 -82.849800 19,550 343 397 1664
2020-07-17 10:59:06 GMT 28.586613 -82.847900 19,500 343 396 1536
2020-07-17 10:59:03 GMT 28.582422 -82.846336 19,450 343 395 1472
2020-07-17 10:58:57 GMT 28.569397 -82.841560 19,250 343 392 1664
2020-07-17 10:58:53 GMT 28.564220 -82.839661 19,150 342 390 2368
2020-07-17 10:58:47 GMT 28.554565 -82.836121 18,925 342 390 2368
2020-07-17 10:58:44 GMT 28.547836 -82.833641 18,775 343 389 2496
2020-07-17 10:58:37 GMT 28.534567 -82.828781 18,450 343 390 2560
2020-07-17 10:58:33 GMT 28.521973 -82.824188 18,175 343 391 2560
2020-07-17 10:58:29 GMT 28.521973 -82.824188 18,150 343 391 2560
2020-07-17 10:58:25 GMT 28.515434 -82.821838 17,975 343 391 2560
2020-07-17 10:58:22 GMT 28.510254 -82.819962 17,850 343 391 2560
2020-07-17 10:58:15 GMT 28.496750 -82.815048 17,550 343 391 2112
2020-07-17 10:58:11 GMT 28.492584 -82.813568 17,275 343 389 1664
2020-07-17 10:58:07 GMT 28.484663 -82.810684 17,300 343 388 1664
2020-07-17 10:58:04 GMT 28.479858 -82.808922 17,250 343 387 1664
2020-07-17 10:58:00 GMT 28.473677 -82.806702 17,150 343 386 1856
2020-07-17 10:57:56 GMT 28.466034 -82.803902 16,950 343 384 2368
2020-07-17 10:57:53 GMT 28.461107 -82.802124 16,950 343 384 2304
2020-07-17 10:57:50 GMT 28.456871 -82.800560 16,775 343 384 2432
2020-07-17 10:57:47 GMT 28.449051 -82.797722 16,525 343 383 2496
2020-07-17 10:57:44 GMT 28.443649 -82.795769 16,450 343 383 2432
2020-07-17 10:57:40 GMT 28.438763 -82.793938 16,350 343 382 2496
2020-07-17 10:57:37 GMT 28.432989 -82.791840 16,200 343 382 2432
2020-07-17 10:57:34 GMT 28.428801 -82.790329 16,100 342 381 2368
2020-07-17 10:57:30 GMT 28.422409 -82.787949 15,950 342 382 2112
2020-07-17 10:57:27 GMT 28.415176 -82.785255 15,825 342 380 1792
2020-07-17 10:57:23 GMT 28.409317 -82.783089 15,725 342 378 1600
2020-07-17 10:57:20 GMT 28.403336 -82.780853 15,625 342 375 1728
2020-07-17 10:57:15 GMT 28.395126 -82.777756 15,500 342 373 2112
2020-07-17 10:57:12 GMT 28.391968 -82.776543 15,375 342 372 2432
2020-07-17 10:57:09 GMT 28.387711 -82.774956 15,125 342 372 2880
2020-07-17 10:57:06 GMT 28.380524 -82.772209 15,050 342 371 2880
2020-07-17 10:57:02 GMT 28.374800 -82.770134 14,950 343 371 2816
2020-07-17 10:56:59 GMT 28.369352 -82.768250 14,750 345 370 2624
2020-07-17 10:56:52 GMT 28.359192 -82.765396 14,500 349 368 2112
2020-07-17 10:56:48 GMT 28.352175 -82.763832 14,350 351 366 1984
2020-07-17 10:56:43 GMT 28.342958 -82.762161 14,175 352 360 1984
2020-07-17 10:56:40 GMT 28.340118 -82.761681 14,125 352 361 1920
2020-07-17 10:56:37 GMT 28.334671 -82.760818 14,000 352 360 1984
2020-07-17 10:56:34 GMT 28.322296 -82.758797 13,800 352 358 2304
2020-07-17 10:56:31 GMT 28.322296 -82.758797 13,725 353 356 2816
2020-07-17 10:56:28 GMT 28.317400 -82.758018 13,575 353 356 2816
2020-07-17 10:56:23 GMT 28.309999 -82.756828 12,350 352 358 3264
2020-07-17 10:56:20 GMT 28.305725 -82.756157 13,225 352 356 3072
2020-07-17 10:56:17 GMT 28.300966 -82.755432 13,075 352 357 3136
2020-07-17 10:56:14 GMT 28.294418 -82.754356 12,875 352 357 3072
2020-07-17 10:56:07 GMT 28.283091 -82.752525 12,500 352 357 3328
2020-07-17 10:56:03 GMT 28.276840 -82.751503 12,300 352 358 3264
2020-07-17 10:56:00 GMT 28.272079 -82.750763 12,100 353 358 2944
2020-07-17 10:55:57 GMT 28.260374 -82.748970 11,975 353 358 2688
2020-07-17 10:55:53 GMT 28.260374 -82.748970 11,850 353 357 2304
2020-07-17 10:55:49 GMT 28.255142 -82.748123 11,725 353 356 2240
2020-07-17 10:55:46 GMT 28.250225 -82.747406 11,625 353 354 2240
2020-07-17 10:55:39 GMT 28.237930 -82.745590 11,350 353 349 2048
2020-07-17 10:55:35 GMT 28.232767 -82.744820 11,250 353 346 1856
2020-07-17 10:55:31 GMT 28.224655 -82.743637 11,100 353 341 1472
2020-07-17 10:55:28 GMT 28.221689 -82.743210 11,050 353 339 1344
2020-07-17 10:55:24 GMT 28.215775 -82.742317 10,975 353 336 1280
2020-07-17 10:55:20 GMT 28.208221 -82.741203 10,925 353 332 1344
2020-07-17 10:55:17 GMT 28.199158 -82.739883 10,750 353 323 1344
2020-07-17 10:55:09 GMT 28.185699 -82.737823 10,425 353 307 1408
2020-07-17 10:55:05 GMT 28.185699 -82.737823 10,525 353 312 1280
2020-07-17 10:54:59 GMT 28.177279 -82.736580 10,400 353 305 1600
2020-07-17 10:54:54 GMT 28.170435 -82.735611 10,225 353 300 2304
2020-07-17 10:54:48 GMT 28.163681 -82.734657 9,950 353 290 2688
2020-07-17 10:54:43 GMT 28.156282 -82.733566 9,750 353 296 2688
2020-07-17 10:54:39 GMT 28.148508 -82.732437 9,500 353 294 2816
2020-07-17 10:54:36 GMT 28.145828 -82.732071 9,400 353 294 2816
2020-07-17 10:54:33 GMT 28.141342 -82.731384 9,250 353 293 2816
2020-07-17 10:54:30 GMT 28.137589 -82.730850 9,100 353 292 2752
2020-07-17 10:54:27 GMT 28.134869 -82.730446 8,950 353 290 2688
2020-07-17 10:54:22 GMT 28.127518 -82.729378 8,775 353 289 2688
2020-07-17 10:54:18 GMT 28.121017 -82.728317 8,550 352 286 2816
2020-07-17 10:54:15 GMT 28.116945 -82.727646 8,400 352 286 2944
2020-07-17 10:54:12 GMT 28.113785 -82.727104 8,275 351 285 3072
2020-07-17 10:54:07 GMT 28.107925 -82.725945 8,050 349 285 3072
2020-07-17 10:54:04 GMT 28.103897 -82.724937 7,775 345 284 2944
2020-07-17 10:54:01 GMT 28.099960 -82.723831 7,775 345 284 2944
2020-07-17 10:53:56 GMT 28.094135 -82.721931 7,525 343 283 3072
2020-07-17 10:53:51 GMT 28.087372 -82.719604 7,225 343 281 3200
2020-07-17 10:53:47 GMT 28.081284 -82.717438 6,950 343 280 3392
2020-07-17 10:53:41 GMT 28.073822 -82.714798 6,600 343 280 3520
2020-07-17 10:53:36 GMT 28.068857 -82.712997 6,350 343 280 3520
2020-07-17 10:53:32 GMT 28.064667 -82.711472 6,000 343 280 3520
2020-07-17 10:53:29 GMT 28.060959 -82.710152 6,000 343 280 3520
2020-07-17 10:53:26 GMT 28.055870 -82.708305 5,750 343 279 3520
2020-07-17 10:53:23 GMT 28.052307 -82.707031 5,575 343 279 3456
2020-07-17 10:53:20 GMT 28.048096 -82.705498 5,375 343 279 3392
2020-07-17 10:53:15 GMT 28.041904 -82.703300 5,225 343 278 3264
2020-07-17 10:53:12 GMT 28.039345 -82.702385 4,850 343 276 3072
2020-07-17 10:53:09 GMT 28.035553 -82.701065 4,850 343 275 3008
2020-07-17 10:53:04 GMT 28.029568 -82.698936 4,650 343 273 2944
2020-07-17 10:52:58 GMT 28.022598 -82.696518 4,325 344 269 2944
2020-07-17 10:52:54 GMT 28.016739 -82.694511 4,100 344 267 2944
2020-07-17 10:52:49 GMT 28.010376 -82.692352 3,850 344 263 2688
2020-07-17 10:52:44 GMT 28.005341 -82.690659 3,650 344 260 2368
2020-07-17 10:52:38 GMT 27.993484 -82.686646 3,375 344 250 2112
2020-07-17 10:52:34 GMT 27.993484 -82.686646 3,275 344 246 2112
2020-07-17 10:52:28 GMT 27.987305 -82.684532 3,075 344 240 2176
2020-07-17 10:52:25 GMT 27.983551 -82.683319 2,950 344 236 2112
2020-07-17 10:52:22 GMT 27.981293 -82.682510 2,875 344 232 2112
2020-07-17 10:52:17 GMT 27.976547 -82.680885 2,475 343 223 2048
2020-07-17 10:52:12 GMT 27.971331 -82.679123 2,525 343 222 1984
2020-07-17 10:52:06 GMT 27.966064 -82.677246 2,375 343 216 1536
2020-07-17 10:52:03 GMT 27.961834 -82.675728 2,250 343 209 1536
2020-07-17 10:51:58 GMT 27.957132 -82.674057 2,075 343 202 1600
2020-07-17 10:51:51 GMT 27.952246 -82.672226 1,975 343 198 1664
2020-07-17 10:51:46 GMT 27.947159 -82.670380 1,800 342 191 1536
2020-07-17 10:51:42 GMT 27.943771 -82.669159 1,700 342 187 1280
2020-07-17 10:51:36 GMT 27.938782 -82.667351 1,500 347 173 1344
2020-07-17 10:51:32 GMT 27.935392 -82.666306 1,450 351 170 1216

Making use of Plane Finder data

You are free to use the raw flight data, aircraft information and images provided in this report for your own purposes provided the data is correctly attributed to Plane Finder. We ask that you please credit Plane Finder and link to planefinder.net in close proximity to the content.

Optionally one of the following logos (no smaller then 150x24px) can be used and must link to planefinder.net

Embedding the Plane Finder map

You are welcome to embed the Plane Finder playback map on your website to offer visitors a more interactive experience. We suggest using the following HTML code:

<iframe src="//planefinder.net/data/report/G4826-N338NV-7700-squawk-2020-07-17/map" width="800" height="600" seamless="seamless"></iframe>

Where our data comes from

Plane Finder has a global network of data feeds and antenna radars that receive data broadcast directly from aircraft. The primary technologies used are ADS-B and MLAT. We also show feeds from the FAA and a FLARM glider feed.

Click here to find out more about the Plane Finder network.

How we collect our data